<?xml version="1.0" encoding="utf-8"?>
<gpx xmlns:xsi="http://www.w3.org/2001/XMLSchema-instance" xmlns:xsd="http://www.w3.org/2001/XMLSchema" version="1.1" creator="Shapelink.com" xmlns="http://www.topografix.com/GPX/1/1" xmlns:gpxtpx="http://www.garmin.com/xmlschemas/TrackPointExtension/v1">
  <metadata>
    <name>Löpning 10.45 km, 2012-03-24</name>
    <desc></desc>
    <author><name>Dennis Rehn</name></author> 
    <time>2012-03-24T13:00:29Z</time>
  </metadata>
  <trk>
    <name>Löpning 10.45 km, 2012-03-24</name>
    <trkseg>
      <trkpt lat="59.8293386888" lon="22.9628433572">
        <ele>16.6</ele>
        <time>2012-03-24T13:00:29Z</time>
      </trkpt>
      <trkpt lat="59.8292251979" lon="22.962834221">
        <ele>16.6</ele>
        <time>2012-03-24T13:00:34Z</time>
      </trkpt>
      <trkpt lat="59.8290241161" lon="22.9628467938">
        <ele>16.6</ele>
        <time>2012-03-24T13:00:42Z</time>
      </trkpt>
      <trkpt lat="59.828894029" lon="22.9628480511">
        <ele>16.6</ele>
        <time>2012-03-24T13:00:47Z</time>
      </trkpt>
      <trkpt lat="59.8287721562" lon="22.9628575226">
        <ele>16.6</ele>
        <time>2012-03-24T13:00:52Z</time>
      </trkpt>
      <trkpt lat="59.8286021712" lon="22.9628492246">
        <ele>16.6</ele>
        <time>2012-03-24T13:00:59Z</time>
      </trkpt>
      <trkpt lat="59.8285523828" lon="22.9628599534">
        <ele>16.6</ele>
        <time>2012-03-24T13:01:03Z</time>
      </trkpt>
      <trkpt lat="59.8285476889" lon="22.9628716042">
        <ele>16.6</ele>
        <time>2012-03-24T13:01:09Z</time>
      </trkpt>
      <trkpt lat="59.8285175141" lon="22.9630692494">
        <ele>16.6</ele>
        <time>2012-03-24T13:01:13Z</time>
      </trkpt>
      <trkpt lat="59.8285001635" lon="22.9634671382">
        <ele>16.6</ele>
        <time>2012-03-24T13:01:18Z</time>
      </trkpt>
      <trkpt lat="59.8284923684" lon="22.9638644403">
        <ele>16.6</ele>
        <time>2012-03-24T13:01:24Z</time>
      </trkpt>
      <trkpt lat="59.8284774486" lon="22.9641925917">
        <ele>16.6</ele>
        <time>2012-03-24T13:01:30Z</time>
      </trkpt>
      <trkpt lat="59.8284491177" lon="22.9645157139">
        <ele>16.6</ele>
        <time>2012-03-24T13:01:36Z</time>
      </trkpt>
      <trkpt lat="59.8284215413" lon="22.9648403449">
        <ele>16.6</ele>
        <time>2012-03-24T13:01:42Z</time>
      </trkpt>
      <trkpt lat="59.8284113992" lon="22.9654476136">
        <ele>16.6</ele>
        <time>2012-03-24T13:01:54Z</time>
      </trkpt>
      <trkpt lat="59.8284130756" lon="22.9657505354">
        <ele>16.6</ele>
        <time>2012-03-24T13:02:00Z</time>
      </trkpt>
      <trkpt lat="59.8284136623" lon="22.9660763399">
        <ele>16.6</ele>
        <time>2012-03-24T13:02:06Z</time>
      </trkpt>
      <trkpt lat="59.828425397" lon="22.9664101071">
        <ele>16.6</ele>
        <time>2012-03-24T13:02:13Z</time>
      </trkpt>
      <trkpt lat="59.8284451783" lon="22.9667577883">
        <ele>16.6</ele>
        <time>2012-03-24T13:02:20Z</time>
      </trkpt>
      <trkpt lat="59.8284684799" lon="22.9670594529">
        <ele>16.6</ele>
        <time>2012-03-24T13:02:26Z</time>
      </trkpt>
      <trkpt lat="59.8284827292" lon="22.9673564236">
        <ele>16.6</ele>
        <time>2012-03-24T13:02:32Z</time>
      </trkpt>
      <trkpt lat="59.8285072043" lon="22.9676518856">
        <ele>16.6</ele>
        <time>2012-03-24T13:02:38Z</time>
      </trkpt>
      <trkpt lat="59.8285210345" lon="22.9679432405">
        <ele>16.6</ele>
        <time>2012-03-24T13:02:44Z</time>
      </trkpt>
      <trkpt lat="59.8285590883" lon="22.9683202583">
        <ele>16.6</ele>
        <time>2012-03-24T13:02:52Z</time>
      </trkpt>
      <trkpt lat="59.8285891793" lon="22.9686184025">
        <ele>16</ele>
        <time>2012-03-24T13:02:58Z</time>
      </trkpt>
      <trkpt lat="59.8286221202" lon="22.9688529281">
        <ele>15.4</ele>
        <time>2012-03-24T13:03:03Z</time>
      </trkpt>
      <trkpt lat="59.8286544743" lon="22.9690935724">
        <ele>15</ele>
        <time>2012-03-24T13:03:08Z</time>
      </trkpt>
      <trkpt lat="59.8286933663" lon="22.9693701751">
        <ele>14.8</ele>
        <time>2012-03-24T13:03:14Z</time>
      </trkpt>
      <trkpt lat="59.8287320907" lon="22.9697153418">
        <ele>14.6</ele>
        <time>2012-03-24T13:03:21Z</time>
      </trkpt>
      <trkpt lat="59.8287599186" lon="22.9700058584">
        <ele>14.6</ele>
        <time>2012-03-24T13:03:27Z</time>
      </trkpt>
      <trkpt lat="59.8287601701" lon="22.9700534676">
        <ele>14.6</ele>
        <time>2012-03-24T13:03:28Z</time>
      </trkpt>
      <trkpt lat="59.8287784426" lon="22.9701895897">
        <ele>14.6</ele>
        <time>2012-03-24T13:03:31Z</time>
      </trkpt>
      <trkpt lat="59.8288117187" lon="22.9704623367">
        <ele>14.4</ele>
        <time>2012-03-24T13:03:37Z</time>
      </trkpt>
      <trkpt lat="59.8288128084" lon="22.970498798">
        <ele>14.4</ele>
        <time>2012-03-24T13:03:38Z</time>
      </trkpt>
      <trkpt lat="59.8287517043" lon="22.9705648473">
        <ele>14.4</ele>
        <time>2012-03-24T13:03:42Z</time>
      </trkpt>
      <trkpt lat="59.8286616827" lon="22.9706327407">
        <ele>14.4</ele>
        <time>2012-03-24T13:03:46Z</time>
      </trkpt>
      <trkpt lat="59.8285627763" lon="22.9707228461">
        <ele>14.4</ele>
        <time>2012-03-24T13:03:50Z</time>
      </trkpt>
      <trkpt lat="59.8283197012" lon="22.9708624886">
        <ele>14.4</ele>
        <time>2012-03-24T13:03:59Z</time>
      </trkpt>
      <trkpt lat="59.8281621215" lon="22.9709763986">
        <ele>14.4</ele>
        <time>2012-03-24T13:04:05Z</time>
      </trkpt>
      <trkpt lat="59.8280304418" lon="22.9710675099">
        <ele>14.4</ele>
        <time>2012-03-24T13:04:11Z</time>
      </trkpt>
      <trkpt lat="59.8279203875" lon="22.97115267">
        <ele>14.4</ele>
        <time>2012-03-24T13:04:16Z</time>
      </trkpt>
      <trkpt lat="59.8277516599" lon="22.9712449547">
        <ele>14.8</ele>
        <time>2012-03-24T13:04:23Z</time>
      </trkpt>
      <trkpt lat="59.8276033002" lon="22.9713145245">
        <ele>15.6</ele>
        <time>2012-03-24T13:04:29Z</time>
      </trkpt>
      <trkpt lat="59.8274860374" lon="22.9714195497">
        <ele>16</ele>
        <time>2012-03-24T13:04:34Z</time>
      </trkpt>
      <trkpt lat="59.8273214169" lon="22.9714944">
        <ele>16.2</ele>
        <time>2012-03-24T13:04:41Z</time>
      </trkpt>
      <trkpt lat="59.8271956884" lon="22.9715433503">
        <ele>16.4</ele>
        <time>2012-03-24T13:04:46Z</time>
      </trkpt>
      <trkpt lat="59.8270469097" lon="22.9716244033">
        <ele>16.4</ele>
        <time>2012-03-24T13:04:52Z</time>
      </trkpt>
      <trkpt lat="59.827016651" lon="22.9717052048">
        <ele>16.4</ele>
        <time>2012-03-24T13:04:55Z</time>
      </trkpt>
      <trkpt lat="59.8269933494" lon="22.971803776">
        <ele>16.4</ele>
        <time>2012-03-24T13:04:59Z</time>
      </trkpt>
      <trkpt lat="59.8269688742" lon="22.9718186119">
        <ele>16.4</ele>
        <time>2012-03-24T13:05:00Z</time>
      </trkpt>
      <trkpt lat="59.826888408" lon="22.971878794">
        <ele>16.4</ele>
        <time>2012-03-24T13:05:04Z</time>
      </trkpt>
      <trkpt lat="59.8267461671" lon="22.9719834001">
        <ele>16.4</ele>
        <time>2012-03-24T13:05:10Z</time>
      </trkpt>
      <trkpt lat="59.8266000706" lon="22.9720787023">
        <ele>16.4</ele>
        <time>2012-03-24T13:05:16Z</time>
      </trkpt>
      <trkpt lat="59.8264890104" lon="22.9721757647">
        <ele>16.4</ele>
        <time>2012-03-24T13:05:21Z</time>
      </trkpt>
      <trkpt lat="59.8263623599" lon="22.9722916025">
        <ele>16.4</ele>
        <time>2012-03-24T13:05:27Z</time>
      </trkpt>
      <trkpt lat="59.8262566642" lon="22.9723959572">
        <ele>16.4</ele>
        <time>2012-03-24T13:05:32Z</time>
      </trkpt>
      <trkpt lat="59.8261308518" lon="22.9725543751">
        <ele>16.4</ele>
        <time>2012-03-24T13:05:38Z</time>
      </trkpt>
      <trkpt lat="59.8260092305" lon="22.9727083506">
        <ele>16.4</ele>
        <time>2012-03-24T13:05:44Z</time>
      </trkpt>
      <trkpt lat="59.8259371461" lon="22.9727964444">
        <ele>16.4</ele>
        <time>2012-03-24T13:05:48Z</time>
      </trkpt>
      <trkpt lat="59.8258467054" lon="22.9729246874">
        <ele>16.4</ele>
        <time>2012-03-24T13:05:53Z</time>
      </trkpt>
      <trkpt lat="59.8256902154" lon="22.973151334">
        <ele>16.4</ele>
        <time>2012-03-24T13:06:01Z</time>
      </trkpt>
      <trkpt lat="59.8254744653" lon="22.973393068">
        <ele>16.4</ele>
        <time>2012-03-24T13:06:11Z</time>
      </trkpt>
      <trkpt lat="59.8253243454" lon="22.9735812417">
        <ele>17</ele>
        <time>2012-03-24T13:06:18Z</time>
      </trkpt>
      <trkpt lat="59.8252170571" lon="22.9737280926">
        <ele>17.6</ele>
        <time>2012-03-24T13:06:23Z</time>
      </trkpt>
      <trkpt lat="59.8250710444" lon="22.9739454352">
        <ele>18</ele>
        <time>2012-03-24T13:06:30Z</time>
      </trkpt>
      <trkpt lat="59.8249748202" lon="22.9740932919">
        <ele>18.4</ele>
        <time>2012-03-24T13:06:35Z</time>
      </trkpt>
      <trkpt lat="59.8248599044" lon="22.9742716588">
        <ele>19.4</ele>
        <time>2012-03-24T13:06:41Z</time>
      </trkpt>
      <trkpt lat="59.8247697989" lon="22.9745419751">
        <ele>20</ele>
        <time>2012-03-24T13:06:47Z</time>
      </trkpt>
      <trkpt lat="59.8246812861" lon="22.9747577252">
        <ele>20.2</ele>
        <time>2012-03-24T13:06:52Z</time>
      </trkpt>
      <trkpt lat="59.8246215231" lon="22.9750020575">
        <ele>20.4</ele>
        <time>2012-03-24T13:06:57Z</time>
      </trkpt>
      <trkpt lat="59.8245780211" lon="22.9752535145">
        <ele>20.4</ele>
        <time>2012-03-24T13:07:02Z</time>
      </trkpt>
      <trkpt lat="59.8245247122" lon="22.9755563526">
        <ele>19.8</ele>
        <time>2012-03-24T13:07:08Z</time>
      </trkpt>
      <trkpt lat="59.8245206889" lon="22.9755981783">
        <ele>19.8</ele>
        <time>2012-03-24T13:07:09Z</time>
      </trkpt>
      <trkpt lat="59.8245081998" lon="22.9757969969">
        <ele>19.2</ele>
        <time>2012-03-24T13:07:13Z</time>
      </trkpt>
      <trkpt lat="59.8244776897" lon="22.9760798861">
        <ele>18.8</ele>
        <time>2012-03-24T13:07:19Z</time>
      </trkpt>
      <trkpt lat="59.8244524602" lon="22.9763023417">
        <ele>18.2</ele>
        <time>2012-03-24T13:07:24Z</time>
      </trkpt>
      <trkpt lat="59.8244501133" lon="22.9766164953">
        <ele>17.4</ele>
        <time>2012-03-24T13:07:30Z</time>
      </trkpt>
      <trkpt lat="59.8244556453" lon="22.9766570637">
        <ele>17.2</ele>
        <time>2012-03-24T13:07:31Z</time>
      </trkpt>
      <trkpt lat="59.8244592495" lon="22.976894942">
        <ele>16.8</ele>
        <time>2012-03-24T13:07:36Z</time>
      </trkpt>
      <trkpt lat="59.8244398873" lon="22.9770951856">
        <ele>16.6</ele>
        <time>2012-03-24T13:07:40Z</time>
      </trkpt>
      <trkpt lat="59.8244478501" lon="22.9776861096">
        <ele>16.4</ele>
        <time>2012-03-24T13:07:53Z</time>
      </trkpt>
      <trkpt lat="59.8244934477" lon="22.9780777957">
        <ele>16.4</ele>
        <time>2012-03-24T13:08:01Z</time>
      </trkpt>
      <trkpt lat="59.8244619317" lon="22.9782590962">
        <ele>16.4</ele>
        <time>2012-03-24T13:08:05Z</time>
      </trkpt>
      <trkpt lat="59.8244987283" lon="22.9784645366">
        <ele>16.4</ele>
        <time>2012-03-24T13:08:10Z</time>
      </trkpt>
      <trkpt lat="59.8245850618" lon="22.9787007386">
        <ele>16.4</ele>
        <time>2012-03-24T13:08:16Z</time>
      </trkpt>
      <trkpt lat="59.824608615" lon="22.9788129722">
        <ele>16.4</ele>
        <time>2012-03-24T13:08:20Z</time>
      </trkpt>
      <trkpt lat="59.824645663" lon="22.9789336716">
        <ele>16.4</ele>
        <time>2012-03-24T13:08:26Z</time>
      </trkpt>
      <trkpt lat="59.8246509436" lon="22.9789618347">
        <ele>16.4</ele>
        <time>2012-03-24T13:08:28Z</time>
      </trkpt>
      <trkpt lat="59.824659996" lon="22.978975162">
        <ele>16.4</ele>
        <time>2012-03-24T13:08:30Z</time>
      </trkpt>
      <trkpt lat="59.8246725689" lon="22.9789899141">
        <ele>16.4</ele>
        <time>2012-03-24T13:08:33Z</time>
      </trkpt>
      <trkpt lat="59.8247052583" lon="22.9790827856">
        <ele>16.4</ele>
        <time>2012-03-24T13:08:39Z</time>
      </trkpt>
      <trkpt lat="59.8247112933" lon="22.9790950231">
        <ele>16.4</ele>
        <time>2012-03-24T13:08:40Z</time>
      </trkpt>
      <trkpt lat="59.8246786877" lon="22.9793221726">
        <ele>14.8</ele>
        <time>2012-03-24T13:09:23Z</time>
      </trkpt>
      <trkpt lat="59.8246798611" lon="22.9793303031">
        <ele>14.4</ele>
        <time>2012-03-24T13:09:33Z</time>
      </trkpt>
      <trkpt lat="59.8247098683" lon="22.9793314765">
        <ele>14.2</ele>
        <time>2012-03-24T13:09:45Z</time>
      </trkpt>
      <trkpt lat="59.8246407177" lon="22.9794193188">
        <ele>9.4</ele>
        <time>2012-03-24T13:11:01Z</time>
      </trkpt>
      <trkpt lat="59.8245665379" lon="22.9793273694">
        <ele>8.4</ele>
        <time>2012-03-24T13:11:13Z</time>
      </trkpt>
      <trkpt lat="59.8244146578" lon="22.9792537763">
        <ele>8.2</ele>
        <time>2012-03-24T13:11:17Z</time>
      </trkpt>
      <trkpt lat="59.8242595089" lon="22.9791108649">
        <ele>8.2</ele>
        <time>2012-03-24T13:11:21Z</time>
      </trkpt>
      <trkpt lat="59.824175606" lon="22.9790563826">
        <ele>8.2</ele>
        <time>2012-03-24T13:11:23Z</time>
      </trkpt>
      <trkpt lat="59.823976033" lon="22.9788767585">
        <ele>8.2</ele>
        <time>2012-03-24T13:11:28Z</time>
      </trkpt>
      <trkpt lat="59.8238612848" lon="22.9787406364">
        <ele>8</ele>
        <time>2012-03-24T13:11:31Z</time>
      </trkpt>
      <trkpt lat="59.8237062196" lon="22.9787551371">
        <ele>8</ele>
        <time>2012-03-24T13:11:35Z</time>
      </trkpt>
      <trkpt lat="59.8236229035" lon="22.9787356073">
        <ele>8.2</ele>
        <time>2012-03-24T13:11:37Z</time>
      </trkpt>
      <trkpt lat="59.8235084068" lon="22.978654219">
        <ele>8.8</ele>
        <time>2012-03-24T13:11:40Z</time>
      </trkpt>
      <trkpt lat="59.8234328021" lon="22.9786061069">
        <ele>9</ele>
        <time>2012-03-24T13:11:42Z</time>
      </trkpt>
      <trkpt lat="59.8230825225" lon="22.9786513692">
        <ele>9.6</ele>
        <time>2012-03-24T13:11:52Z</time>
      </trkpt>
      <trkpt lat="59.8229244398" lon="22.978685232">
        <ele>9.8</ele>
        <time>2012-03-24T13:11:58Z</time>
      </trkpt>
      <trkpt lat="59.8228916666" lon="22.9787048457">
        <ele>9.8</ele>
        <time>2012-03-24T13:11:59Z</time>
      </trkpt>
      <trkpt lat="59.8228037405" lon="22.978857061">
        <ele>10</ele>
        <time>2012-03-24T13:12:03Z</time>
      </trkpt>
      <trkpt lat="59.8226697977" lon="22.9789981284">
        <ele>10.2</ele>
        <time>2012-03-24T13:12:08Z</time>
      </trkpt>
      <trkpt lat="59.8225816201" lon="22.97918077">
        <ele>10.8</ele>
        <time>2012-03-24T13:12:12Z</time>
      </trkpt>
      <trkpt lat="59.8226227752" lon="22.9792914949">
        <ele>11.4</ele>
        <time>2012-03-24T13:12:17Z</time>
      </trkpt>
      <trkpt lat="59.8226734019" lon="22.9793081749">
        <ele>12</ele>
        <time>2012-03-24T13:12:20Z</time>
      </trkpt>
      <trkpt lat="59.8226776767" lon="22.9793033133">
        <ele>12.2</ele>
        <time>2012-03-24T13:12:21Z</time>
      </trkpt>
      <trkpt lat="59.8226703006" lon="22.9793158862">
        <ele>12.4</ele>
        <time>2012-03-24T13:12:22Z</time>
      </trkpt>
      <trkpt lat="59.8226551294" lon="22.9793262798">
        <ele>12.8</ele>
        <time>2012-03-24T13:12:25Z</time>
      </trkpt>
      <trkpt lat="59.8225779321" lon="22.9792914111">
        <ele>13.4</ele>
        <time>2012-03-24T13:12:29Z</time>
      </trkpt>
      <trkpt lat="59.8224677939" lon="22.9794153794">
        <ele>13.6</ele>
        <time>2012-03-24T13:12:33Z</time>
      </trkpt>
      <trkpt lat="59.8224475097" lon="22.9794612283">
        <ele>13.6</ele>
        <time>2012-03-24T13:12:34Z</time>
      </trkpt>
      <trkpt lat="59.8224062708" lon="22.9795977695">
        <ele>13.8</ele>
        <time>2012-03-24T13:12:37Z</time>
      </trkpt>
      <trkpt lat="59.8223103818" lon="22.9795648286">
        <ele>14</ele>
        <time>2012-03-24T13:12:41Z</time>
      </trkpt>
      <trkpt lat="59.8222013333" lon="22.97953457">
        <ele>14</ele>
        <time>2012-03-24T13:12:44Z</time>
      </trkpt>
      <trkpt lat="59.8220605174" lon="22.9794566183">
        <ele>14</ele>
        <time>2012-03-24T13:12:49Z</time>
      </trkpt>
      <trkpt lat="59.8218935499" lon="22.9793345778">
        <ele>14.2</ele>
        <time>2012-03-24T13:12:57Z</time>
      </trkpt>
      <trkpt lat="59.8218802227" lon="22.979335416">
        <ele>14.2</ele>
        <time>2012-03-24T13:12:58Z</time>
      </trkpt>
      <trkpt lat="59.8218617825" lon="22.979443794">
        <ele>14.2</ele>
        <time>2012-03-24T13:13:03Z</time>
      </trkpt>
      <trkpt lat="59.821882402" lon="22.9794328137">
        <ele>14.2</ele>
        <time>2012-03-24T13:13:04Z</time>
      </trkpt>
      <trkpt lat="59.8219177736" lon="22.9794438778">
        <ele>14.2</ele>
        <time>2012-03-24T13:13:06Z</time>
      </trkpt>
      <trkpt lat="59.8219226351" lon="22.9794515053">
        <ele>14.2</ele>
        <time>2012-03-24T13:13:10Z</time>
      </trkpt>
      <trkpt lat="59.8219305979" lon="22.9794472306">
        <ele>14.2</ele>
        <time>2012-03-24T13:13:11Z</time>
      </trkpt>
      <trkpt lat="59.821988014" lon="22.9794798362">
        <ele>14.2</ele>
        <time>2012-03-24T13:13:15Z</time>
      </trkpt>
      <trkpt lat="59.8220370481" lon="22.9794088415">
        <ele>14.2</ele>
        <time>2012-03-24T13:13:20Z</time>
      </trkpt>
      <trkpt lat="59.8220488665" lon="22.9794054887">
        <ele>14.2</ele>
        <time>2012-03-24T13:13:21Z</time>
      </trkpt>
      <trkpt lat="59.8221302548" lon="22.9794775731">
        <ele>14.2</ele>
        <time>2012-03-24T13:13:25Z</time>
      </trkpt>
      <trkpt lat="59.8221517963" lon="22.9794919899">
        <ele>14.4</ele>
        <time>2012-03-24T13:13:26Z</time>
      </trkpt>
      <trkpt lat="59.8222712384" lon="22.9795256852">
        <ele>15</ele>
        <time>2012-03-24T13:13:30Z</time>
      </trkpt>
      <trkpt lat="59.8223087893" lon="22.9795211589">
        <ele>15.2</ele>
        <time>2012-03-24T13:13:31Z</time>
      </trkpt>
      <trkpt lat="59.8224065222" lon="22.9795877112">
        <ele>15.6</ele>
        <time>2012-03-24T13:13:34Z</time>
      </trkpt>
      <trkpt lat="59.8224269741" lon="22.979644289">
        <ele>15.6</ele>
        <time>2012-03-24T13:13:35Z</time>
      </trkpt>
      <trkpt lat="59.8224488508" lon="22.9798561835">
        <ele>15.8</ele>
        <time>2012-03-24T13:13:39Z</time>
      </trkpt>
      <trkpt lat="59.8224843901" lon="22.9799468756">
        <ele>16</ele>
        <time>2012-03-24T13:13:41Z</time>
      </trkpt>
      <trkpt lat="59.8224620942" lon="22.9801827423">
        <ele>16.2</ele>
        <time>2012-03-24T13:13:45Z</time>
      </trkpt>
      <trkpt lat="59.8224586576" lon="22.9802246518">
        <ele>16.2</ele>
        <time>2012-03-24T13:13:46Z</time>
      </trkpt>
      <trkpt lat="59.8225809496" lon="22.9804069581">
        <ele>16.4</ele>
        <time>2012-03-24T13:13:51Z</time>
      </trkpt>
      <trkpt lat="59.8226966198" lon="22.9804048626">
        <ele>17.2</ele>
        <time>2012-03-24T13:13:55Z</time>
      </trkpt>
      <trkpt lat="59.8227787624" lon="22.9805090497">
        <ele>17.8</ele>
        <time>2012-03-24T13:14:01Z</time>
      </trkpt>
      <trkpt lat="59.8227740685" lon="22.9805097202">
        <ele>17.8</ele>
        <time>2012-03-24T13:14:02Z</time>
      </trkpt>
      <trkpt lat="59.8226926803" lon="22.9805203652">
        <ele>18</ele>
        <time>2012-03-24T13:14:06Z</time>
      </trkpt>
      <trkpt lat="59.8226381141" lon="22.9806431601">
        <ele>18.2</ele>
        <time>2012-03-24T13:14:09Z</time>
      </trkpt>
      <trkpt lat="59.8226198416" lon="22.9807036774">
        <ele>18.2</ele>
        <time>2012-03-24T13:14:10Z</time>
      </trkpt>
      <trkpt lat="59.8225671194" lon="22.9810098682">
        <ele>18.2</ele>
        <time>2012-03-24T13:14:14Z</time>
      </trkpt>
      <trkpt lat="59.8226036645" lon="22.9813387739">
        <ele>18.4</ele>
        <time>2012-03-24T13:14:20Z</time>
      </trkpt>
      <trkpt lat="59.8226184167" lon="22.9813951841">
        <ele>18.4</ele>
        <time>2012-03-24T13:14:21Z</time>
      </trkpt>
      <trkpt lat="59.8226036645" lon="22.9815454716">
        <ele>18.4</ele>
        <time>2012-03-24T13:14:25Z</time>
      </trkpt>
      <trkpt lat="59.8225952826" lon="22.9815476509">
        <ele>18.4</ele>
        <time>2012-03-24T13:14:26Z</time>
      </trkpt>
      <trkpt lat="59.8225855596" lon="22.981542035">
        <ele>18.4</ele>
        <time>2012-03-24T13:14:28Z</time>
      </trkpt>
      <trkpt lat="59.8225364417" lon="22.9816898917">
        <ele>18.4</ele>
        <time>2012-03-24T13:14:32Z</time>
      </trkpt>
      <trkpt lat="59.8224611722" lon="22.981823583">
        <ele>18.4</ele>
        <time>2012-03-24T13:14:35Z</time>
      </trkpt>
      <trkpt lat="59.8224537961" lon="22.9818946616">
        <ele>18.4</ele>
        <time>2012-03-24T13:14:36Z</time>
      </trkpt>
      <trkpt lat="59.8224403013" lon="22.9819540892">
        <ele>18.4</ele>
        <time>2012-03-24T13:14:37Z</time>
      </trkpt>
      <trkpt lat="59.8223645289" lon="22.9820553426">
        <ele>18.4</ele>
        <time>2012-03-24T13:14:40Z</time>
      </trkpt>
      <trkpt lat="59.8222365373" lon="22.982150058">
        <ele>19.2</ele>
        <time>2012-03-24T13:14:45Z</time>
      </trkpt>
      <trkpt lat="59.8221589209" lon="22.9822373974">
        <ele>19.6</ele>
        <time>2012-03-24T13:14:48Z</time>
      </trkpt>
      <trkpt lat="59.8220780356" lon="22.9823159358">
        <ele>19.8</ele>
        <time>2012-03-24T13:14:51Z</time>
      </trkpt>
      <trkpt lat="59.8219835715" lon="22.9824485375">
        <ele>20.2</ele>
        <time>2012-03-24T13:14:57Z</time>
      </trkpt>
      <trkpt lat="59.8219876787" lon="22.9824615295">
        <ele>20.2</ele>
        <time>2012-03-24T13:15:01Z</time>
      </trkpt>
      <trkpt lat="59.8219845774" lon="22.9824681512">
        <ele>20.2</ele>
        <time>2012-03-24T13:15:03Z</time>
      </trkpt>
      <trkpt lat="59.8219056199" lon="22.9824155128">
        <ele>20.8</ele>
        <time>2012-03-24T13:15:08Z</time>
      </trkpt>
      <trkpt lat="59.8218025225" lon="22.9823867629">
        <ele>21.4</ele>
        <time>2012-03-24T13:15:12Z</time>
      </trkpt>
      <trkpt lat="59.8217104892" lon="22.9823119125">
        <ele>21.8</ele>
        <time>2012-03-24T13:15:16Z</time>
      </trkpt>
      <trkpt lat="59.8216487146" lon="22.9821949012">
        <ele>22</ele>
        <time>2012-03-24T13:15:20Z</time>
      </trkpt>
      <trkpt lat="59.8216065537" lon="22.9820809912">
        <ele>22.2</ele>
        <time>2012-03-24T13:15:24Z</time>
      </trkpt>
      <trkpt lat="59.8216006864" lon="22.9820738666">
        <ele>22.2</ele>
        <time>2012-03-24T13:15:25Z</time>
      </trkpt>
      <trkpt lat="59.821589287" lon="22.9820719387">
        <ele>22.2</ele>
        <time>2012-03-24T13:15:27Z</time>
      </trkpt>
      <trkpt lat="59.8215107486" lon="22.9820726931">
        <ele>22.4</ele>
        <time>2012-03-24T13:15:32Z</time>
      </trkpt>
      <trkpt lat="59.821500355" lon="22.9820585277">
        <ele>22.4</ele>
        <time>2012-03-24T13:15:33Z</time>
      </trkpt>
      <trkpt lat="59.8214680847" lon="22.9819930651">
        <ele>22.4</ele>
        <time>2012-03-24T13:15:36Z</time>
      </trkpt>
      <trkpt lat="59.8214286059" lon="22.9818949968">
        <ele>22.4</ele>
        <time>2012-03-24T13:15:42Z</time>
      </trkpt>
      <trkpt lat="59.8214228224" lon="22.9818614692">
        <ele>22.4</ele>
        <time>2012-03-24T13:15:46Z</time>
      </trkpt>
      <trkpt lat="59.8213950783" lon="22.9817204019">
        <ele>22.4</ele>
        <time>2012-03-24T13:15:53Z</time>
      </trkpt>
      <trkpt lat="59.8214107525" lon="22.9817296219">
        <ele>22.4</ele>
        <time>2012-03-24T13:15:55Z</time>
      </trkpt>
      <trkpt lat="59.8213351478" lon="22.9817670052">
        <ele>22.4</ele>
        <time>2012-03-24T13:16:00Z</time>
      </trkpt>
      <trkpt lat="59.8213763029" lon="22.9814764047">
        <ele>23.2</ele>
        <time>2012-03-24T13:16:11Z</time>
      </trkpt>
      <trkpt lat="59.8213835951" lon="22.9814463137">
        <ele>23.4</ele>
        <time>2012-03-24T13:16:12Z</time>
      </trkpt>
      <trkpt lat="59.821401281" lon="22.9813256144">
        <ele>23.6</ele>
        <time>2012-03-24T13:16:15Z</time>
      </trkpt>
      <trkpt lat="59.8213927314" lon="22.9812856327">
        <ele>24</ele>
        <time>2012-03-24T13:16:22Z</time>
      </trkpt>
      <trkpt lat="59.8213844333" lon="22.9811835412">
        <ele>24.2</ele>
        <time>2012-03-24T13:16:28Z</time>
      </trkpt>
      <trkpt lat="59.8213903007" lon="22.981154456">
        <ele>24.4</ele>
        <time>2012-03-24T13:16:29Z</time>
      </trkpt>
      <trkpt lat="59.8214736168" lon="22.9810034141">
        <ele>24.4</ele>
        <time>2012-03-24T13:16:33Z</time>
      </trkpt>
      <trkpt lat="59.821487866" lon="22.9809915118">
        <ele>24.4</ele>
        <time>2012-03-24T13:16:34Z</time>
      </trkpt>
      <trkpt lat="59.8214939009" lon="22.9809475907">
        <ele>24.4</ele>
        <time>2012-03-24T13:16:39Z</time>
      </trkpt>
      <trkpt lat="59.8214512371" lon="22.9808370334">
        <ele>24.4</ele>
        <time>2012-03-24T13:16:45Z</time>
      </trkpt>
      <trkpt lat="59.8214331322" lon="22.980808535">
        <ele>24.4</ele>
        <time>2012-03-24T13:16:46Z</time>
      </trkpt>
      <trkpt lat="59.8214121774" lon="22.98078121">
        <ele>24.4</ele>
        <time>2012-03-24T13:16:47Z</time>
      </trkpt>
      <trkpt lat="59.8213658255" lon="22.9808381231">
        <ele>24.4</ele>
        <time>2012-03-24T13:16:51Z</time>
      </trkpt>
      <trkpt lat="59.8213296157" lon="22.98081918">
        <ele>24.4</ele>
        <time>2012-03-24T13:16:53Z</time>
      </trkpt>
      <trkpt lat="59.8212939088" lon="22.9807810423">
        <ele>24.4</ele>
        <time>2012-03-24T13:16:55Z</time>
      </trkpt>
      <trkpt lat="59.8212275242" lon="22.9806127338">
        <ele>24.4</ele>
        <time>2012-03-24T13:17:00Z</time>
      </trkpt>
      <trkpt lat="59.8212134426" lon="22.9806054415">
        <ele>24.4</ele>
        <time>2012-03-24T13:17:01Z</time>
      </trkpt>
      <trkpt lat="59.821132222" lon="22.9805571618">
        <ele>24.4</ele>
        <time>2012-03-24T13:17:06Z</time>
      </trkpt>
      <trkpt lat="59.8211185595" lon="22.9805590896">
        <ele>24.4</ele>
        <time>2012-03-24T13:17:07Z</time>
      </trkpt>
      <trkpt lat="59.8210753927" lon="22.9805961376">
        <ele>24.4</ele>
        <time>2012-03-24T13:17:09Z</time>
      </trkpt>
      <trkpt lat="59.8210258557" lon="22.9807552261">
        <ele>24.6</ele>
        <time>2012-03-24T13:17:13Z</time>
      </trkpt>
      <trkpt lat="59.8209183159" lon="22.980839548">
        <ele>24.6</ele>
        <time>2012-03-24T13:17:17Z</time>
      </trkpt>
      <trkpt lat="59.8208922482" lon="22.9808444933">
        <ele>24.4</ele>
        <time>2012-03-24T13:17:18Z</time>
      </trkpt>
      <trkpt lat="59.8208686112" lon="22.9808192638">
        <ele>24.2</ele>
        <time>2012-03-24T13:17:19Z</time>
      </trkpt>
      <trkpt lat="59.8207350875" lon="22.9807111373">
        <ele>23.6</ele>
        <time>2012-03-24T13:17:23Z</time>
      </trkpt>
      <trkpt lat="59.8207225147" lon="22.9805393083">
        <ele>23.4</ele>
        <time>2012-03-24T13:17:25Z</time>
      </trkpt>
      <trkpt lat="59.8206895738" lon="22.9804254821">
        <ele>23.2</ele>
        <time>2012-03-24T13:17:28Z</time>
      </trkpt>
      <trkpt lat="59.8206627517" lon="22.9803564991">
        <ele>22.4</ele>
        <time>2012-03-24T13:17:32Z</time>
      </trkpt>
      <trkpt lat="59.8206585608" lon="22.9803670603">
        <ele>22.2</ele>
        <time>2012-03-24T13:17:33Z</time>
      </trkpt>
      <trkpt lat="59.8206229377" lon="22.9804077963">
        <ele>21.4</ele>
        <time>2012-03-24T13:17:38Z</time>
      </trkpt>
      <trkpt lat="59.8206065092" lon="22.9804419106">
        <ele>21.2</ele>
        <time>2012-03-24T13:17:39Z</time>
      </trkpt>
      <trkpt lat="59.8205992169" lon="22.9805903541">
        <ele>20.4</ele>
        <time>2012-03-24T13:17:42Z</time>
      </trkpt>
      <trkpt lat="59.8206036593" lon="22.9806387177">
        <ele>20.2</ele>
        <time>2012-03-24T13:17:43Z</time>
      </trkpt>
      <trkpt lat="59.8206170704" lon="22.9806724967">
        <ele>20</ele>
        <time>2012-03-24T13:17:44Z</time>
      </trkpt>
      <trkpt lat="59.8206397853" lon="22.980850193">
        <ele>19.6</ele>
        <time>2012-03-24T13:17:47Z</time>
      </trkpt>
      <trkpt lat="59.8206343371" lon="22.9810587347">
        <ele>19.2</ele>
        <time>2012-03-24T13:17:50Z</time>
      </trkpt>
      <trkpt lat="59.8206193335" lon="22.9811538692">
        <ele>19</ele>
        <time>2012-03-24T13:17:52Z</time>
      </trkpt>
      <trkpt lat="59.8205329999" lon="22.9811999697">
        <ele>18.8</ele>
        <time>2012-03-24T13:17:55Z</time>
      </trkpt>
      <trkpt lat="59.8203926031" lon="22.9814031469">
        <ele>18.8</ele>
        <time>2012-03-24T13:18:00Z</time>
      </trkpt>
      <trkpt lat="59.8204327524" lon="22.9815950924">
        <ele>19.4</ele>
        <time>2012-03-24T13:18:03Z</time>
      </trkpt>
      <trkpt lat="59.8205104526" lon="22.9817158756">
        <ele>19.6</ele>
        <time>2012-03-24T13:18:06Z</time>
      </trkpt>
      <trkpt lat="59.8205421362" lon="22.9817668376">
        <ele>19.8</ele>
        <time>2012-03-24T13:18:09Z</time>
      </trkpt>
      <trkpt lat="59.8205082733" lon="22.9817258501">
        <ele>20</ele>
        <time>2012-03-24T13:18:12Z</time>
      </trkpt>
      <trkpt lat="59.8204851393" lon="22.981729119">
        <ele>20</ele>
        <time>2012-03-24T13:18:13Z</time>
      </trkpt>
      <trkpt lat="59.8203976322" lon="22.981829618">
        <ele>20.2</ele>
        <time>2012-03-24T13:18:17Z</time>
      </trkpt>
      <trkpt lat="59.8202812077" lon="22.9818787359">
        <ele>20.2</ele>
        <time>2012-03-24T13:18:20Z</time>
      </trkpt>
      <trkpt lat="59.8201644478" lon="22.9819623873">
        <ele>20.4</ele>
        <time>2012-03-24T13:18:23Z</time>
      </trkpt>
      <trkpt lat="59.8200212011" lon="22.9821804005">
        <ele>20.4</ele>
        <time>2012-03-24T13:18:28Z</time>
      </trkpt>
      <trkpt lat="59.8200030124" lon="22.9822025287">
        <ele>20.4</ele>
        <time>2012-03-24T13:18:29Z</time>
      </trkpt>
      <trkpt lat="59.8199347837" lon="22.9822278421">
        <ele>20.4</ele>
        <time>2012-03-24T13:18:33Z</time>
      </trkpt>
      <trkpt lat="59.8198646272" lon="22.9821658998">
        <ele>20.4</ele>
        <time>2012-03-24T13:18:37Z</time>
      </trkpt>
      <trkpt lat="59.8198818939" lon="22.9822296023">
        <ele>20.4</ele>
        <time>2012-03-24T13:18:40Z</time>
      </trkpt>
      <trkpt lat="59.8198877613" lon="22.9822586037">
        <ele>20.4</ele>
        <time>2012-03-24T13:18:43Z</time>
      </trkpt>
      <trkpt lat="59.8198902758" lon="22.982239912">
        <ele>20.4</ele>
        <time>2012-03-24T13:18:51Z</time>
      </trkpt>
      <trkpt lat="59.8198486178" lon="22.9821337972">
        <ele>20.4</ele>
        <time>2012-03-24T13:18:54Z</time>
      </trkpt>
      <trkpt lat="59.8198455165" lon="22.9820426859">
        <ele>20</ele>
        <time>2012-03-24T13:18:57Z</time>
      </trkpt>
      <trkpt lat="59.819853144" lon="22.982036148">
        <ele>19.2</ele>
        <time>2012-03-24T13:19:03Z</time>
      </trkpt>
      <trkpt lat="59.8198491207" lon="22.9821283489">
        <ele>19</ele>
        <time>2012-03-24T13:19:06Z</time>
      </trkpt>
      <trkpt lat="59.819809642" lon="22.9822633813">
        <ele>18.8</ele>
        <time>2012-03-24T13:19:10Z</time>
      </trkpt>
      <trkpt lat="59.8198252323" lon="22.9823292631">
        <ele>18.2</ele>
        <time>2012-03-24T13:19:12Z</time>
      </trkpt>
      <trkpt lat="59.8198444268" lon="22.982441832">
        <ele>18</ele>
        <time>2012-03-24T13:19:14Z</time>
      </trkpt>
      <trkpt lat="59.8199159245" lon="22.9824935483">
        <ele>17.2</ele>
        <time>2012-03-24T13:19:19Z</time>
      </trkpt>
      <trkpt lat="59.8199679761" lon="22.9824938836">
        <ele>16.8</ele>
        <time>2012-03-24T13:19:23Z</time>
      </trkpt>
      <trkpt lat="59.8200366238" lon="22.9824404071">
        <ele>16.8</ele>
        <time>2012-03-24T13:19:26Z</time>
      </trkpt>
      <trkpt lat="59.8200516274" lon="22.9823674007">
        <ele>16.4</ele>
        <time>2012-03-24T13:19:32Z</time>
      </trkpt>
      <trkpt lat="59.8200607637" lon="22.9823673169">
        <ele>16.4</ele>
        <time>2012-03-24T13:19:36Z</time>
      </trkpt>
      <trkpt lat="59.8201253043" lon="22.9824628706">
        <ele>16.4</ele>
        <time>2012-03-24T13:19:41Z</time>
      </trkpt>
      <trkpt lat="59.8201403079" lon="22.9825013435">
        <ele>16.4</ele>
        <time>2012-03-24T13:19:42Z</time>
      </trkpt>
      <trkpt lat="59.820181044" lon="22.9826134095">
        <ele>16.2</ele>
        <time>2012-03-24T13:19:46Z</time>
      </trkpt>
      <trkpt lat="59.8202104644" lon="22.9825292552">
        <ele>16.2</ele>
        <time>2012-03-24T13:19:55Z</time>
      </trkpt>
      <trkpt lat="59.8202591633" lon="22.9824575061">
        <ele>16.2</ele>
        <time>2012-03-24T13:20:00Z</time>
      </trkpt>
      <trkpt lat="59.8201465105" lon="22.9826691491">
        <ele>16.2</ele>
        <time>2012-03-24T13:20:10Z</time>
      </trkpt>
      <trkpt lat="59.8201966343" lon="22.9827014194">
        <ele>16.2</ele>
        <time>2012-03-24T13:20:13Z</time>
      </trkpt>
      <trkpt lat="59.8202083689" lon="22.9827417364">
        <ele>16.2</ele>
        <time>2012-03-24T13:20:14Z</time>
      </trkpt>
      <trkpt lat="59.8202161641" lon="22.9829900921">
        <ele>16.2</ele>
        <time>2012-03-24T13:20:19Z</time>
      </trkpt>
      <trkpt lat="59.8202149068" lon="22.9830387071">
        <ele>16.2</ele>
        <time>2012-03-24T13:20:20Z</time>
      </trkpt>
      <trkpt lat="59.8202654497" lon="22.98309386">
        <ele>16.2</ele>
        <time>2012-03-24T13:20:23Z</time>
      </trkpt>
      <trkpt lat="59.8202812915" lon="22.9831301536">
        <ele>16.2</ele>
        <time>2012-03-24T13:20:24Z</time>
      </trkpt>
      <trkpt lat="59.82027643" lon="22.9832701313">
        <ele>16.2</ele>
        <time>2012-03-24T13:20:27Z</time>
      </trkpt>
      <trkpt lat="59.8202948702" lon="22.983424945">
        <ele>16.4</ele>
        <time>2012-03-24T13:20:31Z</time>
      </trkpt>
      <trkpt lat="59.8203044255" lon="22.983500466">
        <ele>17</ele>
        <time>2012-03-24T13:20:34Z</time>
      </trkpt>
      <trkpt lat="59.8203019109" lon="22.9835735561">
        <ele>17.2</ele>
        <time>2012-03-24T13:20:36Z</time>
      </trkpt>
      <trkpt lat="59.8202785254" lon="22.9836510049">
        <ele>17.6</ele>
        <time>2012-03-24T13:20:40Z</time>
      </trkpt>
      <trkpt lat="59.8203032521" lon="22.9837153779">
        <ele>18</ele>
        <time>2012-03-24T13:20:47Z</time>
      </trkpt>
      <trkpt lat="59.8203256317" lon="22.983750498">
        <ele>18</ele>
        <time>2012-03-24T13:20:51Z</time>
      </trkpt>
      <trkpt lat="59.8203026653" lon="22.9837028888">
        <ele>18.2</ele>
        <time>2012-03-24T13:20:55Z</time>
      </trkpt>
      <trkpt lat="59.820308365" lon="22.9834761584">
        <ele>18.2</ele>
        <time>2012-03-24T13:20:59Z</time>
      </trkpt>
      <trkpt lat="59.8202952054" lon="22.9832692093">
        <ele>18.2</ele>
        <time>2012-03-24T13:21:03Z</time>
      </trkpt>
      <trkpt lat="59.8203044255" lon="22.983201735">
        <ele>18.2</ele>
        <time>2012-03-24T13:21:04Z</time>
      </trkpt>
      <trkpt lat="59.8203363606" lon="22.9828315903">
        <ele>18.2</ele>
        <time>2012-03-24T13:21:09Z</time>
      </trkpt>
      <trkpt lat="59.8203299903" lon="22.9827476037">
        <ele>18.2</ele>
        <time>2012-03-24T13:21:10Z</time>
      </trkpt>
      <trkpt lat="59.8202325926" lon="22.9825873418">
        <ele>18.2</ele>
        <time>2012-03-24T13:21:14Z</time>
      </trkpt>
      <trkpt lat="59.8202696406" lon="22.9824616133">
        <ele>18.2</ele>
        <time>2012-03-24T13:21:16Z</time>
      </trkpt>
      <trkpt lat="59.8203321696" lon="22.9823912891">
        <ele>18.2</ele>
        <time>2012-03-24T13:21:18Z</time>
      </trkpt>
      <trkpt lat="59.8203947824" lon="22.9823363877">
        <ele>18.2</ele>
        <time>2012-03-24T13:21:20Z</time>
      </trkpt>
      <trkpt lat="59.820382461" lon="22.982148214">
        <ele>18.2</ele>
        <time>2012-03-24T13:21:24Z</time>
      </trkpt>
      <trkpt lat="59.8203515318" lon="22.9821177039">
        <ele>18.2</ele>
        <time>2012-03-24T13:21:25Z</time>
      </trkpt>
      <trkpt lat="59.8201641125" lon="22.9820401713">
        <ele>18.2</ele>
        <time>2012-03-24T13:21:31Z</time>
      </trkpt>
      <trkpt lat="59.8201372066" lon="22.9820250001">
        <ele>18.2</ele>
        <time>2012-03-24T13:21:32Z</time>
      </trkpt>
      <trkpt lat="59.8201149108" lon="22.9819415164">
        <ele>18.2</ele>
        <time>2012-03-24T13:21:35Z</time>
      </trkpt>
      <trkpt lat="59.8201640287" lon="22.9817201504">
        <ele>18.2</ele>
        <time>2012-03-24T13:21:41Z</time>
      </trkpt>
      <trkpt lat="59.8201764339" lon="22.9816631535">
        <ele>18.2</ele>
        <time>2012-03-24T13:21:42Z</time>
      </trkpt>
      <trkpt lat="59.8201761824" lon="22.9815774905">
        <ele>18.2</ele>
        <time>2012-03-24T13:21:45Z</time>
      </trkpt>
      <trkpt lat="59.8202039265" lon="22.9815931646">
        <ele>18.2</ele>
        <time>2012-03-24T13:21:47Z</time>
      </trkpt>
      <trkpt lat="59.8203059343" lon="22.9812863871">
        <ele>18.2</ele>
        <time>2012-03-24T13:21:55Z</time>
      </trkpt>
      <trkpt lat="59.820321357" lon="22.981260487">
        <ele>18.2</ele>
        <time>2012-03-24T13:21:57Z</time>
      </trkpt>
      <trkpt lat="59.8202865721" lon="22.9813433002">
        <ele>18.2</ele>
        <time>2012-03-24T13:22:03Z</time>
      </trkpt>
      <trkpt lat="59.820191689" lon="22.9814355011">
        <ele>18.2</ele>
        <time>2012-03-24T13:22:07Z</time>
      </trkpt>
      <trkpt lat="59.8200957162" lon="22.981451259">
        <ele>18.2</ele>
        <time>2012-03-24T13:22:11Z</time>
      </trkpt>
      <trkpt lat="59.8200744262" lon="22.9814666817">
        <ele>18.2</ele>
        <time>2012-03-24T13:22:12Z</time>
      </trkpt>
      <trkpt lat="59.8200497834" lon="22.981498533">
        <ele>18.2</ele>
        <time>2012-03-24T13:22:18Z</time>
      </trkpt>
      <trkpt lat="59.8200483585" lon="22.9814907378">
        <ele>18.2</ele>
        <time>2012-03-24T13:22:22Z</time>
      </trkpt>
      <trkpt lat="59.820043497" lon="22.9813726368">
        <ele>18.2</ele>
        <time>2012-03-24T13:22:26Z</time>
      </trkpt>
      <trkpt lat="59.8199726699" lon="22.9813741456">
        <ele>17.6</ele>
        <time>2012-03-24T13:22:29Z</time>
      </trkpt>
      <trkpt lat="59.8199435847" lon="22.9813827789">
        <ele>17.6</ele>
        <time>2012-03-24T13:22:30Z</time>
      </trkpt>
      <trkpt lat="59.8199273238" lon="22.9813978663">
        <ele>17.2</ele>
        <time>2012-03-24T13:22:33Z</time>
      </trkpt>
      <trkpt lat="59.8199269886" lon="22.9814010515">
        <ele>17</ele>
        <time>2012-03-24T13:22:34Z</time>
      </trkpt>
      <trkpt lat="59.8199310119" lon="22.9815423703">
        <ele>16.8</ele>
        <time>2012-03-24T13:22:38Z</time>
      </trkpt>
      <trkpt lat="59.8199356219" lon="22.9816401871">
        <ele>16.6</ele>
        <time>2012-03-24T13:22:41Z</time>
      </trkpt>
      <trkpt lat="59.8199112306" lon="22.9818009519">
        <ele>16.4</ele>
        <time>2012-03-24T13:22:44Z</time>
      </trkpt>
      <trkpt lat="59.8199247254" lon="22.9818300371">
        <ele>16.4</ele>
        <time>2012-03-24T13:22:45Z</time>
      </trkpt>
      <trkpt lat="59.8200258112" lon="22.9820787281">
        <ele>16.2</ele>
        <time>2012-03-24T13:22:52Z</time>
      </trkpt>
      <trkpt lat="59.8200341092" lon="22.982097755">
        <ele>16.2</ele>
        <time>2012-03-24T13:22:53Z</time>
      </trkpt>
      <trkpt lat="59.820110636" lon="22.9820312027">
        <ele>16.2</ele>
        <time>2012-03-24T13:22:56Z</time>
      </trkpt>
      <trkpt lat="59.820143996" lon="22.9820408419">
        <ele>16.2</ele>
        <time>2012-03-24T13:22:57Z</time>
      </trkpt>
      <trkpt lat="59.820327811" lon="22.9822311948">
        <ele>16.2</ele>
        <time>2012-03-24T13:23:04Z</time>
      </trkpt>
      <trkpt lat="59.8203319182" lon="22.9823394052">
        <ele>16.2</ele>
        <time>2012-03-24T13:23:08Z</time>
      </trkpt>
      <trkpt lat="59.8203082812" lon="22.9824129144">
        <ele>16.2</ele>
        <time>2012-03-24T13:23:11Z</time>
      </trkpt>
      <trkpt lat="59.820250027" lon="22.9825437559">
        <ele>16.2</ele>
        <time>2012-03-24T13:23:14Z</time>
      </trkpt>
      <trkpt lat="59.8202389629" lon="22.9828144074">
        <ele>16.2</ele>
        <time>2012-03-24T13:23:18Z</time>
      </trkpt>
      <trkpt lat="59.8202238755" lon="22.9830251284">
        <ele>16.2</ele>
        <time>2012-03-24T13:23:21Z</time>
      </trkpt>
      <trkpt lat="59.8202258033" lon="22.9830676246">
        <ele>16.2</ele>
        <time>2012-03-24T13:23:22Z</time>
      </trkpt>
      <trkpt lat="59.8202900925" lon="22.9831975441">
        <ele>16.2</ele>
        <time>2012-03-24T13:23:25Z</time>
      </trkpt>
      <trkpt lat="59.8203262185" lon="22.9834306447">
        <ele>16.2</ele>
        <time>2012-03-24T13:23:30Z</time>
      </trkpt>
      <trkpt lat="59.8203145676" lon="22.9835163916">
        <ele>16.2</ele>
        <time>2012-03-24T13:23:32Z</time>
      </trkpt>
      <trkpt lat="59.8203002346" lon="22.9836225064">
        <ele>16.2</ele>
        <time>2012-03-24T13:23:34Z</time>
      </trkpt>
      <trkpt lat="59.8203196806" lon="22.9837224187">
        <ele>16.2</ele>
        <time>2012-03-24T13:23:36Z</time>
      </trkpt>
      <trkpt lat="59.8203143162" lon="22.983714372">
        <ele>16.2</ele>
        <time>2012-03-24T13:23:41Z</time>
      </trkpt>
      <trkpt lat="59.8203553875" lon="22.9836894778">
        <ele>17</ele>
        <time>2012-03-24T13:23:47Z</time>
      </trkpt>
      <trkpt lat="59.8205363527" lon="22.9832118771">
        <ele>17.8</ele>
        <time>2012-03-24T13:24:00Z</time>
      </trkpt>
      <trkpt lat="59.8205557149" lon="22.9831729013">
        <ele>17.8</ele>
        <time>2012-03-24T13:24:01Z</time>
      </trkpt>
      <trkpt lat="59.8206578902" lon="22.9831718117">
        <ele>18</ele>
        <time>2012-03-24T13:24:05Z</time>
      </trkpt>
      <trkpt lat="59.8207175694" lon="22.9831875696">
        <ele>18</ele>
        <time>2012-03-24T13:24:07Z</time>
      </trkpt>
      <trkpt lat="59.8208371791" lon="22.9830236197">
        <ele>18</ele>
        <time>2012-03-24T13:24:11Z</time>
      </trkpt>
      <trkpt lat="59.8208912423" lon="22.9829395492">
        <ele>18</ele>
        <time>2012-03-24T13:24:13Z</time>
      </trkpt>
      <trkpt lat="59.8210209103" lon="22.9827257269">
        <ele>18.2</ele>
        <time>2012-03-24T13:24:17Z</time>
      </trkpt>
      <trkpt lat="59.8211900571" lon="22.9825755233">
        <ele>18.2</ele>
        <time>2012-03-24T13:24:23Z</time>
      </trkpt>
      <trkpt lat="59.821230374" lon="22.9824870104">
        <ele>18.2</ele>
        <time>2012-03-24T13:24:25Z</time>
      </trkpt>
      <trkpt lat="59.8213629757" lon="22.9823115773">
        <ele>18.2</ele>
        <time>2012-03-24T13:24:30Z</time>
      </trkpt>
      <trkpt lat="59.8214612954" lon="22.9822438515">
        <ele>18.2</ele>
        <time>2012-03-24T13:24:34Z</time>
      </trkpt>
      <trkpt lat="59.8215733614" lon="22.9821979187">
        <ele>18.2</ele>
        <time>2012-03-24T13:24:39Z</time>
      </trkpt>
      <trkpt lat="59.82161569" lon="22.9821617927">
        <ele>18.2</ele>
        <time>2012-03-24T13:24:41Z</time>
      </trkpt>
      <trkpt lat="59.8216632991" lon="22.9821936439">
        <ele>18.2</ele>
        <time>2012-03-24T13:24:45Z</time>
      </trkpt>
      <trkpt lat="59.8217243194" lon="22.9822077255">
        <ele>18.2</ele>
        <time>2012-03-24T13:24:50Z</time>
      </trkpt>
      <trkpt lat="59.8217896982" lon="22.9823301851">
        <ele>18.2</ele>
        <time>2012-03-24T13:24:54Z</time>
      </trkpt>
      <trkpt lat="59.8218387323" lon="22.9823199592">
        <ele>18.2</ele>
        <time>2012-03-24T13:24:58Z</time>
      </trkpt>
      <trkpt lat="59.8218993335" lon="22.9822340447">
        <ele>18.6</ele>
        <time>2012-03-24T13:25:02Z</time>
      </trkpt>
      <trkpt lat="59.8219958929" lon="22.9821961585">
        <ele>19.2</ele>
        <time>2012-03-24T13:25:07Z</time>
      </trkpt>
      <trkpt lat="59.8221072046" lon="22.9821699231">
        <ele>19.6</ele>
        <time>2012-03-24T13:25:11Z</time>
      </trkpt>
      <trkpt lat="59.8222097152" lon="22.9820645627">
        <ele>19.8</ele>
        <time>2012-03-24T13:25:16Z</time>
      </trkpt>
      <trkpt lat="59.8222228748" lon="22.9820593659">
        <ele>19.8</ele>
        <time>2012-03-24T13:25:17Z</time>
      </trkpt>
      <trkpt lat="59.8222419017" lon="22.9820504811">
        <ele>20</ele>
        <time>2012-03-24T13:25:18Z</time>
      </trkpt>
      <trkpt lat="59.8223724917" lon="22.9819387503">
        <ele>20</ele>
        <time>2012-03-24T13:25:25Z</time>
      </trkpt>
      <trkpt lat="59.8224173349" lon="22.9818378323">
        <ele>20.2</ele>
        <time>2012-03-24T13:25:28Z</time>
      </trkpt>
      <trkpt lat="59.8224811211" lon="22.9818399277">
        <ele>20.2</ele>
        <time>2012-03-24T13:25:33Z</time>
      </trkpt>
      <trkpt lat="59.8224952865" lon="22.9819363196">
        <ele>20.2</ele>
        <time>2012-03-24T13:25:36Z</time>
      </trkpt>
      <trkpt lat="59.82247517" lon="22.9821172848">
        <ele>20.2</ele>
        <time>2012-03-24T13:25:43Z</time>
      </trkpt>
      <trkpt lat="59.8224739127" lon="22.9821388263">
        <ele>20.2</ele>
        <time>2012-03-24T13:25:44Z</time>
      </trkpt>
      <trkpt lat="59.8224413909" lon="22.9822078093">
        <ele>21.2</ele>
        <time>2012-03-24T13:25:50Z</time>
      </trkpt>
      <trkpt lat="59.8223623496" lon="22.9823043688">
        <ele>21.8</ele>
        <time>2012-03-24T13:25:58Z</time>
      </trkpt>
      <trkpt lat="59.8223560632" lon="22.9823152653">
        <ele>21.8</ele>
        <time>2012-03-24T13:25:59Z</time>
      </trkpt>
      <trkpt lat="59.8223170873" lon="22.9824689055">
        <ele>22</ele>
        <time>2012-03-24T13:26:07Z</time>
      </trkpt>
      <trkpt lat="59.822305688" lon="22.982507127">
        <ele>22.2</ele>
        <time>2012-03-24T13:26:14Z</time>
      </trkpt>
      <trkpt lat="59.8222234615" lon="22.9825622799">
        <ele>22.2</ele>
        <time>2012-03-24T13:26:20Z</time>
      </trkpt>
      <trkpt lat="59.8222140738" lon="22.9826621921">
        <ele>22.2</ele>
        <time>2012-03-24T13:26:23Z</time>
      </trkpt>
      <trkpt lat="59.8222135709" lon="22.9827141599">
        <ele>22.2</ele>
        <time>2012-03-24T13:26:26Z</time>
      </trkpt>
      <trkpt lat="59.8221796242" lon="22.9828361166">
        <ele>22.2</ele>
        <time>2012-03-24T13:26:31Z</time>
      </trkpt>
      <trkpt lat="59.822167219" lon="22.9828646988">
        <ele>22.2</ele>
        <time>2012-03-24T13:26:32Z</time>
      </trkpt>
      <trkpt lat="59.8220673067" lon="22.9829734959">
        <ele>22.2</ele>
        <time>2012-03-24T13:26:36Z</time>
      </trkpt>
      <trkpt lat="59.8220048616" lon="22.9829914332">
        <ele>22.2</ele>
        <time>2012-03-24T13:26:38Z</time>
      </trkpt>
      <trkpt lat="59.8218966512" lon="22.9831484262">
        <ele>22.2</ele>
        <time>2012-03-24T13:26:42Z</time>
      </trkpt>
      <trkpt lat="59.8218330326" lon="22.98326703">
        <ele>22.2</ele>
        <time>2012-03-24T13:26:45Z</time>
      </trkpt>
      <trkpt lat="59.8217599425" lon="22.983416144">
        <ele>22.2</ele>
        <time>2012-03-24T13:26:50Z</time>
      </trkpt>
      <trkpt lat="59.8216753691" lon="22.983415222">
        <ele>22.2</ele>
        <time>2012-03-24T13:26:54Z</time>
      </trkpt>
      <trkpt lat="59.8215605371" lon="22.9833986259">
        <ele>22.2</ele>
        <time>2012-03-24T13:27:05Z</time>
      </trkpt>
      <trkpt lat="59.821514269" lon="22.9834511804">
        <ele>22.2</ele>
        <time>2012-03-24T13:27:09Z</time>
      </trkpt>
      <trkpt lat="59.8215048812" lon="22.9834717999">
        <ele>22.2</ele>
        <time>2012-03-24T13:27:10Z</time>
      </trkpt>
      <trkpt lat="59.8214908835" lon="22.983499041">
        <ele>22.2</ele>
        <time>2012-03-24T13:27:12Z</time>
      </trkpt>
      <trkpt lat="59.8214813281" lon="22.983531479">
        <ele>22.2</ele>
        <time>2012-03-24T13:27:17Z</time>
      </trkpt>
      <trkpt lat="59.8214013648" lon="22.9836774917">
        <ele>22.2</ele>
        <time>2012-03-24T13:27:23Z</time>
      </trkpt>
      <trkpt lat="59.8213312921" lon="22.9836923276">
        <ele>22.2</ele>
        <time>2012-03-24T13:27:26Z</time>
      </trkpt>
      <trkpt lat="59.8212793243" lon="22.9837113546">
        <ele>22.2</ele>
        <time>2012-03-24T13:27:29Z</time>
      </trkpt>
      <trkpt lat="59.8212289491" lon="22.9839325529">
        <ele>22.2</ele>
        <time>2012-03-24T13:27:34Z</time>
      </trkpt>
      <trkpt lat="59.8212194775" lon="22.9840543419">
        <ele>22.2</ele>
        <time>2012-03-24T13:27:38Z</time>
      </trkpt>
      <trkpt lat="59.8211865367" lon="22.9842136818">
        <ele>22.2</ele>
        <time>2012-03-24T13:27:43Z</time>
      </trkpt>
      <trkpt lat="59.8211416097" lon="22.9843394941">
        <ele>22.2</ele>
        <time>2012-03-24T13:27:49Z</time>
      </trkpt>
      <trkpt lat="59.8211199844" lon="22.9844096506">
        <ele>22.2</ele>
        <time>2012-03-24T13:27:53Z</time>
      </trkpt>
      <trkpt lat="59.8211417773" lon="22.9845299309">
        <ele>22.2</ele>
        <time>2012-03-24T13:27:59Z</time>
      </trkpt>
      <trkpt lat="59.8211150391" lon="22.9846301784">
        <ele>22.2</ele>
        <time>2012-03-24T13:28:05Z</time>
      </trkpt>
      <trkpt lat="59.8210311362" lon="22.9847134945">
        <ele>22.2</ele>
        <time>2012-03-24T13:28:12Z</time>
      </trkpt>
      <trkpt lat="59.8210237602" lon="22.9847427474">
        <ele>22.2</ele>
        <time>2012-03-24T13:28:13Z</time>
      </trkpt>
      <trkpt lat="59.8209878856" lon="22.9848760196">
        <ele>22.2</ele>
        <time>2012-03-24T13:28:17Z</time>
      </trkpt>
      <trkpt lat="59.8209248538" lon="22.9849738363">
        <ele>22.2</ele>
        <time>2012-03-24T13:28:21Z</time>
      </trkpt>
      <trkpt lat="59.820916388" lon="22.9850407239">
        <ele>22.2</ele>
        <time>2012-03-24T13:28:23Z</time>
      </trkpt>
      <trkpt lat="59.8209398574" lon="22.9850607566">
        <ele>22.2</ele>
        <time>2012-03-24T13:28:28Z</time>
      </trkpt>
      <trkpt lat="59.8209527655" lon="22.9850936137">
        <ele>22.2</ele>
        <time>2012-03-24T13:28:33Z</time>
      </trkpt>
      <trkpt lat="59.8209512567" lon="22.9851182565">
        <ele>22.2</ele>
        <time>2012-03-24T13:28:34Z</time>
      </trkpt>
      <trkpt lat="59.8209683558" lon="22.9851097908">
        <ele>21.8</ele>
        <time>2012-03-24T13:28:38Z</time>
      </trkpt>
      <trkpt lat="59.8210059905" lon="22.9852017402">
        <ele>21.4</ele>
        <time>2012-03-24T13:28:42Z</time>
      </trkpt>
      <trkpt lat="59.821017809" lon="22.9852192584">
        <ele>21.2</ele>
        <time>2012-03-24T13:28:43Z</time>
      </trkpt>
      <trkpt lat="59.8210633227" lon="22.9854438933">
        <ele>20.6</ele>
        <time>2012-03-24T13:28:53Z</time>
      </trkpt>
      <trkpt lat="59.8210003747" lon="22.9854938494">
        <ele>20.4</ele>
        <time>2012-03-24T13:29:02Z</time>
      </trkpt>
      <trkpt lat="59.8210055715" lon="22.9855039077">
        <ele>20.4</ele>
        <time>2012-03-24T13:29:07Z</time>
      </trkpt>
      <trkpt lat="59.8210000394" lon="22.9855039915">
        <ele>20.4</ele>
        <time>2012-03-24T13:29:08Z</time>
      </trkpt>
      <trkpt lat="59.8209463952" lon="22.9855110323">
        <ele>20.2</ele>
        <time>2012-03-24T13:29:13Z</time>
      </trkpt>
      <trkpt lat="59.8209359179" lon="22.985526455">
        <ele>20.2</ele>
        <time>2012-03-24T13:29:14Z</time>
      </trkpt>
      <trkpt lat="59.8209319784" lon="22.9855513492">
        <ele>20.2</ele>
        <time>2012-03-24T13:29:15Z</time>
      </trkpt>
      <trkpt lat="59.8208988699" lon="22.9857032293">
        <ele>20.2</ele>
        <time>2012-03-24T13:29:18Z</time>
      </trkpt>
      <trkpt lat="59.8208899851" lon="22.9857592204">
        <ele>20.2</ele>
        <time>2012-03-24T13:29:20Z</time>
      </trkpt>
      <trkpt lat="59.8209238479" lon="22.9857883056">
        <ele>20.2</ele>
        <time>2012-03-24T13:29:24Z</time>
      </trkpt>
      <trkpt lat="59.8209179806" lon="22.9857892276">
        <ele>20.2</ele>
        <time>2012-03-24T13:29:27Z</time>
      </trkpt>
      <trkpt lat="59.8208937569" lon="22.9856790894">
        <ele>20.2</ele>
        <time>2012-03-24T13:29:32Z</time>
      </trkpt>
      <trkpt lat="59.8209155498" lon="22.9855721364">
        <ele>20.2</ele>
        <time>2012-03-24T13:29:34Z</time>
      </trkpt>
      <trkpt lat="59.8210158812" lon="22.985303245">
        <ele>20.2</ele>
        <time>2012-03-24T13:29:40Z</time>
      </trkpt>
      <trkpt lat="59.8210385961" lon="22.9851724035">
        <ele>20.2</ele>
        <time>2012-03-24T13:29:44Z</time>
      </trkpt>
      <trkpt lat="59.8211165478" lon="22.9850603375">
        <ele>20.2</ele>
        <time>2012-03-24T13:29:51Z</time>
      </trkpt>
      <trkpt lat="59.8211831839" lon="22.9849502832">
        <ele>20.2</ele>
        <time>2012-03-24T13:29:55Z</time>
      </trkpt>
      <trkpt lat="59.8212124367" lon="22.984788764">
        <ele>20.2</ele>
        <time>2012-03-24T13:29:59Z</time>
      </trkpt>
      <trkpt lat="59.8212857784" lon="22.9846306814">
        <ele>20.2</ele>
        <time>2012-03-24T13:30:08Z</time>
      </trkpt>
      <trkpt lat="59.8212935735" lon="22.9846042784">
        <ele>20.2</ele>
        <time>2012-03-24T13:30:10Z</time>
      </trkpt>
      <trkpt lat="59.8212924839" lon="22.9845298471">
        <ele>20.2</ele>
        <time>2012-03-24T13:30:13Z</time>
      </trkpt>
      <trkpt lat="59.8213004467" lon="22.9844196251">
        <ele>20.2</ele>
        <time>2012-03-24T13:30:19Z</time>
      </trkpt>
      <trkpt lat="59.8212986865" lon="22.9844112432">
        <ele>20.2</ele>
        <time>2012-03-24T13:30:20Z</time>
      </trkpt>
      <trkpt lat="59.8213034642" lon="22.9842993448">
        <ele>20.2</ele>
        <time>2012-03-24T13:30:26Z</time>
      </trkpt>
      <trkpt lat="59.8213552643" lon="22.9841222353">
        <ele>20.2</ele>
        <time>2012-03-24T13:30:32Z</time>
      </trkpt>
      <trkpt lat="59.8214268457" lon="22.9839719478">
        <ele>20.2</ele>
        <time>2012-03-24T13:30:37Z</time>
      </trkpt>
      <trkpt lat="59.8214724433" lon="22.9839288649">
        <ele>20.2</ele>
        <time>2012-03-24T13:30:39Z</time>
      </trkpt>
      <trkpt lat="59.8215462878" lon="22.9837368355">
        <ele>20.2</ele>
        <time>2012-03-24T13:30:44Z</time>
      </trkpt>
      <trkpt lat="59.8216334596" lon="22.98361622">
        <ele>20.2</ele>
        <time>2012-03-24T13:30:53Z</time>
      </trkpt>
      <trkpt lat="59.8217377304" lon="22.983597696">
        <ele>20.2</ele>
        <time>2012-03-24T13:30:59Z</time>
      </trkpt>
      <trkpt lat="59.8217338747" lon="22.9835392742">
        <ele>20.2</ele>
        <time>2012-03-24T13:31:02Z</time>
      </trkpt>
      <trkpt lat="59.8217563382" lon="22.9834067563">
        <ele>20.2</ele>
        <time>2012-03-24T13:31:08Z</time>
      </trkpt>
      <trkpt lat="59.8217895306" lon="22.9833169023">
        <ele>20.2</ele>
        <time>2012-03-24T13:31:13Z</time>
      </trkpt>
      <trkpt lat="59.8217933862" lon="22.9833029046">
        <ele>20.2</ele>
        <time>2012-03-24T13:31:14Z</time>
      </trkpt>
      <trkpt lat="59.8217990859" lon="22.9832857217">
        <ele>20.2</ele>
        <time>2012-03-24T13:31:16Z</time>
      </trkpt>
      <trkpt lat="59.8217983316" lon="22.9832028247">
        <ele>20.2</ele>
        <time>2012-03-24T13:31:23Z</time>
      </trkpt>
      <trkpt lat="59.8217927995" lon="22.9830836341">
        <ele>20.2</ele>
        <time>2012-03-24T13:31:28Z</time>
      </trkpt>
      <trkpt lat="59.8217455256" lon="22.983006772">
        <ele>20.2</ele>
        <time>2012-03-24T13:31:34Z</time>
      </trkpt>
      <trkpt lat="59.8217353835" lon="22.9830087837">
        <ele>20.2</ele>
        <time>2012-03-24T13:31:35Z</time>
      </trkpt>
      <trkpt lat="59.8217182006" lon="22.9830189258">
        <ele>20.2</ele>
        <time>2012-03-24T13:31:37Z</time>
      </trkpt>
      <trkpt lat="59.8216941445" lon="22.9829636891">
        <ele>20.2</ele>
        <time>2012-03-24T13:31:41Z</time>
      </trkpt>
      <trkpt lat="59.8216871037" lon="22.9828740866">
        <ele>20.2</ele>
        <time>2012-03-24T13:31:46Z</time>
      </trkpt>
      <trkpt lat="59.8216863494" lon="22.9828339373">
        <ele>20.2</ele>
        <time>2012-03-24T13:31:48Z</time>
      </trkpt>
      <trkpt lat="59.8219292568" lon="22.982527495">
        <ele>20.2</ele>
        <time>2012-03-24T13:32:04Z</time>
      </trkpt>
      <trkpt lat="59.8219466074" lon="22.9825067079">
        <ele>20.2</ele>
        <time>2012-03-24T13:32:05Z</time>
      </trkpt>
      <trkpt lat="59.8219619462" lon="22.9825264054">
        <ele>20.2</ele>
        <time>2012-03-24T13:32:12Z</time>
      </trkpt>
      <trkpt lat="59.821971334" lon="22.9825404869">
        <ele>20.2</ele>
        <time>2012-03-24T13:32:20Z</time>
      </trkpt>
      <trkpt lat="59.8220009221" lon="22.9825561611">
        <ele>20.2</ele>
        <time>2012-03-24T13:32:25Z</time>
      </trkpt>
      <trkpt lat="59.8220757724" lon="22.9825276626">
        <ele>20.2</ele>
        <time>2012-03-24T13:32:31Z</time>
      </trkpt>
      <trkpt lat="59.8221208671" lon="22.982584911">
        <ele>20.2</ele>
        <time>2012-03-24T13:32:34Z</time>
      </trkpt>
      <trkpt lat="59.8221877546" lon="22.9826288322">
        <ele>20.2</ele>
        <time>2012-03-24T13:32:37Z</time>
      </trkpt>
      <trkpt lat="59.8222506189" lon="22.9827306723">
        <ele>20.2</ele>
        <time>2012-03-24T13:32:41Z</time>
      </trkpt>
      <trkpt lat="59.822258917" lon="22.9827584163">
        <ele>20.2</ele>
        <time>2012-03-24T13:32:42Z</time>
      </trkpt>
      <trkpt lat="59.8222625212" lon="22.9827820533">
        <ele>20.2</ele>
        <time>2012-03-24T13:32:43Z</time>
      </trkpt>
      <trkpt lat="59.8223073643" lon="22.982882217">
        <ele>20.2</ele>
        <time>2012-03-24T13:32:48Z</time>
      </trkpt>
      <trkpt lat="59.8223299955" lon="22.9828698956">
        <ele>20.2</ele>
        <time>2012-03-24T13:32:49Z</time>
      </trkpt>
      <trkpt lat="59.82238255" lon="22.9828497791">
        <ele>20.2</ele>
        <time>2012-03-24T13:32:51Z</time>
      </trkpt>
      <trkpt lat="59.8224335958" lon="22.9829333466">
        <ele>20.2</ele>
        <time>2012-03-24T13:32:54Z</time>
      </trkpt>
      <trkpt lat="59.8225425605" lon="22.9830273077">
        <ele>20.2</ele>
        <time>2012-03-24T13:33:02Z</time>
      </trkpt>
      <trkpt lat="59.822561755" lon="22.9830454964">
        <ele>20.2</ele>
        <time>2012-03-24T13:33:03Z</time>
      </trkpt>
      <trkpt lat="59.8227387807" lon="22.9832528646">
        <ele>20.2</ele>
        <time>2012-03-24T13:33:13Z</time>
      </trkpt>
      <trkpt lat="59.822777086" lon="22.9833828679">
        <ele>20</ele>
        <time>2012-03-24T13:33:19Z</time>
      </trkpt>
      <trkpt lat="59.8227932631" lon="22.9835896494">
        <ele>19.4</ele>
        <time>2012-03-24T13:33:23Z</time>
      </trkpt>
      <trkpt lat="59.822821091" lon="22.9837430381">
        <ele>19</ele>
        <time>2012-03-24T13:33:27Z</time>
      </trkpt>
      <trkpt lat="59.8228285509" lon="22.9837507495">
        <ele>19</ele>
        <time>2012-03-24T13:33:28Z</time>
      </trkpt>
      <trkpt lat="59.8228417943" lon="22.9837457203">
        <ele>18.8</ele>
        <time>2012-03-24T13:33:30Z</time>
      </trkpt>
      <trkpt lat="59.8229015572" lon="22.9837498275">
        <ele>18.6</ele>
        <time>2012-03-24T13:33:35Z</time>
      </trkpt>
      <trkpt lat="59.8229750665" lon="22.9836446346">
        <ele>18.4</ele>
        <time>2012-03-24T13:33:40Z</time>
      </trkpt>
      <trkpt lat="59.8230199935" lon="22.9835498353">
        <ele>18.4</ele>
        <time>2012-03-24T13:33:44Z</time>
      </trkpt>
      <trkpt lat="59.8230292136" lon="22.9835417887">
        <ele>18.4</ele>
        <time>2012-03-24T13:33:45Z</time>
      </trkpt>
      <trkpt lat="59.8230580473" lon="22.9835152181">
        <ele>18.4</ele>
        <time>2012-03-24T13:33:48Z</time>
      </trkpt>
      <trkpt lat="59.8231170559" lon="22.983519409">
        <ele>18.2</ele>
        <time>2012-03-24T13:33:54Z</time>
      </trkpt>
      <trkpt lat="59.8231311375" lon="22.9835227618">
        <ele>18.2</ele>
        <time>2012-03-24T13:33:56Z</time>
      </trkpt>
      <trkpt lat="59.8231306346" lon="22.9835072553">
        <ele>18.2</ele>
        <time>2012-03-24T13:33:59Z</time>
      </trkpt>
      <trkpt lat="59.8231960972" lon="22.9834216761">
        <ele>18.2</ele>
        <time>2012-03-24T13:34:04Z</time>
      </trkpt>
      <trkpt lat="59.8232999489" lon="22.9833422157">
        <ele>18.2</ele>
        <time>2012-03-24T13:34:10Z</time>
      </trkpt>
      <trkpt lat="59.8233596281" lon="22.9832081053">
        <ele>18.2</ele>
        <time>2012-03-24T13:34:17Z</time>
      </trkpt>
      <trkpt lat="59.8233981848" lon="22.9830886632">
        <ele>18.2</ele>
        <time>2012-03-24T13:34:22Z</time>
      </trkpt>
      <trkpt lat="59.8234051418" lon="22.9829729092">
        <ele>18.2</ele>
        <time>2012-03-24T13:34:27Z</time>
      </trkpt>
      <trkpt lat="59.823430036" lon="22.9828071152">
        <ele>18.2</ele>
        <time>2012-03-24T13:34:34Z</time>
      </trkpt>
      <trkpt lat="59.8234374959" lon="22.9827809637">
        <ele>18.2</ele>
        <time>2012-03-24T13:34:35Z</time>
      </trkpt>
      <trkpt lat="59.8234929841" lon="22.9825746013">
        <ele>18.2</ele>
        <time>2012-03-24T13:34:44Z</time>
      </trkpt>
      <trkpt lat="59.8235750429" lon="22.9824318575">
        <ele>17</ele>
        <time>2012-03-24T13:34:54Z</time>
      </trkpt>
      <trkpt lat="59.823742178" lon="22.9824821489">
        <ele>16.6</ele>
        <time>2012-03-24T13:35:01Z</time>
      </trkpt>
      <trkpt lat="59.8238516456" lon="22.9825221306">
        <ele>16.4</ele>
        <time>2012-03-24T13:35:05Z</time>
      </trkpt>
      <trkpt lat="59.8238769589" lon="22.9825686501">
        <ele>16.4</ele>
        <time>2012-03-24T13:35:06Z</time>
      </trkpt>
      <trkpt lat="59.8239770388" lon="22.9826999107">
        <ele>16.4</ele>
        <time>2012-03-24T13:35:10Z</time>
      </trkpt>
      <trkpt lat="59.8240072975" lon="22.9827142437">
        <ele>16.2</ele>
        <time>2012-03-24T13:35:11Z</time>
      </trkpt>
      <trkpt lat="59.8242072058" lon="22.9827911058">
        <ele>15.8</ele>
        <time>2012-03-24T13:35:18Z</time>
      </trkpt>
      <trkpt lat="59.8243839801" lon="22.9828721587">
        <ele>15</ele>
        <time>2012-03-24T13:35:24Z</time>
      </trkpt>
      <trkpt lat="59.8245247122" lon="22.9829533793">
        <ele>14.6</ele>
        <time>2012-03-24T13:35:29Z</time>
      </trkpt>
      <trkpt lat="59.8246980499" lon="22.9830948658">
        <ele>14.4</ele>
        <time>2012-03-24T13:35:35Z</time>
      </trkpt>
      <trkpt lat="59.8248858044" lon="22.9832437284">
        <ele>14.2</ele>
        <time>2012-03-24T13:35:42Z</time>
      </trkpt>
      <trkpt lat="59.8249740658" lon="22.9833702112">
        <ele>14.2</ele>
        <time>2012-03-24T13:35:46Z</time>
      </trkpt>
      <trkpt lat="59.8251214196" lon="22.9836343249">
        <ele>14.2</ele>
        <time>2012-03-24T13:35:53Z</time>
      </trkpt>
      <trkpt lat="59.825222673" lon="22.9838204869">
        <ele>14</ele>
        <time>2012-03-24T13:35:58Z</time>
      </trkpt>
      <trkpt lat="59.8253698591" lon="22.9840877857">
        <ele>14</ele>
        <time>2012-03-24T13:36:05Z</time>
      </trkpt>
      <trkpt lat="59.8255026284" lon="22.9842663202">
        <ele>14</ele>
        <time>2012-03-24T13:36:11Z</time>
      </trkpt>
      <trkpt lat="59.8256349786" lon="22.9844902845">
        <ele>14</ele>
        <time>2012-03-24T13:36:17Z</time>
      </trkpt>
      <trkpt lat="59.8257606233" lon="22.9847122372">
        <ele>14</ele>
        <time>2012-03-24T13:36:23Z</time>
      </trkpt>
      <trkpt lat="59.8258715159" lon="22.9848749299">
        <ele>14</ele>
        <time>2012-03-24T13:36:28Z</time>
      </trkpt>
      <trkpt lat="59.8259976635" lon="22.9850853156">
        <ele>14</ele>
        <time>2012-03-24T13:36:34Z</time>
      </trkpt>
      <trkpt lat="59.8260868469" lon="22.9852111279">
        <ele>14</ele>
        <time>2012-03-24T13:36:38Z</time>
      </trkpt>
      <trkpt lat="59.8261910339" lon="22.9853627565">
        <ele>14</ele>
        <time>2012-03-24T13:36:43Z</time>
      </trkpt>
      <trkpt lat="59.8262347874" lon="22.9854187476">
        <ele>14</ele>
        <time>2012-03-24T13:36:45Z</time>
      </trkpt>
      <trkpt lat="59.826514659" lon="22.9861128527">
        <ele>15</ele>
        <time>2012-03-24T13:37:00Z</time>
      </trkpt>
      <trkpt lat="59.8267919323" lon="22.9865298523">
        <ele>15.8</ele>
        <time>2012-03-24T13:37:12Z</time>
      </trkpt>
      <trkpt lat="59.8269155653" lon="22.9866778766">
        <ele>16</ele>
        <time>2012-03-24T13:37:17Z</time>
      </trkpt>
      <trkpt lat="59.8270319061" lon="22.9869191077">
        <ele>16</ele>
        <time>2012-03-24T13:37:23Z</time>
      </trkpt>
      <trkpt lat="59.8270649308" lon="22.9870162539">
        <ele>16.2</ele>
        <time>2012-03-24T13:37:25Z</time>
      </trkpt>
      <trkpt lat="59.8270815269" lon="22.9871584109">
        <ele>16.8</ele>
        <time>2012-03-24T13:37:28Z</time>
      </trkpt>
      <trkpt lat="59.8270464906" lon="22.9874203453">
        <ele>17.4</ele>
        <time>2012-03-24T13:37:33Z</time>
      </trkpt>
      <trkpt lat="59.8269644318" lon="22.987691416">
        <ele>17.8</ele>
        <time>2012-03-24T13:37:39Z</time>
      </trkpt>
      <trkpt lat="59.8269217679" lon="22.9879099321">
        <ele>17.8</ele>
        <time>2012-03-24T13:37:43Z</time>
      </trkpt>
      <trkpt lat="59.8268195088" lon="22.9885737786">
        <ele>18</ele>
        <time>2012-03-24T13:37:56Z</time>
      </trkpt>
      <trkpt lat="59.8268255437" lon="22.9889345355">
        <ele>18.2</ele>
        <time>2012-03-24T13:38:03Z</time>
      </trkpt>
      <trkpt lat="59.8268457441" lon="22.9893412253">
        <ele>18.2</ele>
        <time>2012-03-24T13:38:10Z</time>
      </trkpt>
      <trkpt lat="59.8268443192" lon="22.9896742382">
        <ele>18.2</ele>
        <time>2012-03-24T13:38:16Z</time>
      </trkpt>
      <trkpt lat="59.8268604124" lon="22.9900186505">
        <ele>17.4</ele>
        <time>2012-03-24T13:38:22Z</time>
      </trkpt>
      <trkpt lat="59.826908776" lon="22.9904041341">
        <ele>16.8</ele>
        <time>2012-03-24T13:38:29Z</time>
      </trkpt>
      <trkpt lat="59.8269320777" lon="22.9907499713">
        <ele>16.4</ele>
        <time>2012-03-24T13:38:35Z</time>
      </trkpt>
      <trkpt lat="59.8269298984" lon="22.9908057109">
        <ele>16.4</ele>
        <time>2012-03-24T13:38:36Z</time>
      </trkpt>
      <trkpt lat="59.8269412978" lon="22.9910267416">
        <ele>16.4</ele>
        <time>2012-03-24T13:38:40Z</time>
      </trkpt>
      <trkpt lat="59.826959235" lon="22.9913444994">
        <ele>16.2</ele>
        <time>2012-03-24T13:38:46Z</time>
      </trkpt>
      <trkpt lat="59.8269770885" lon="22.9917200086">
        <ele>16.2</ele>
        <time>2012-03-24T13:38:53Z</time>
      </trkpt>
      <trkpt lat="59.8269829558" lon="22.9920128721">
        <ele>16.2</ele>
        <time>2012-03-24T13:38:59Z</time>
      </trkpt>
      <trkpt lat="59.8270026533" lon="22.9923553566">
        <ele>16.2</ele>
        <time>2012-03-24T13:39:06Z</time>
      </trkpt>
      <trkpt lat="59.8270220155" lon="22.992641347">
        <ele>16.2</ele>
        <time>2012-03-24T13:39:11Z</time>
      </trkpt>
      <trkpt lat="59.8270376058" lon="22.9930088095">
        <ele>16.2</ele>
        <time>2012-03-24T13:39:18Z</time>
      </trkpt>
      <trkpt lat="59.8270408747" lon="22.9933603464">
        <ele>16.2</ele>
        <time>2012-03-24T13:39:25Z</time>
      </trkpt>
      <trkpt lat="59.8270390307" lon="22.9938221891">
        <ele>16.2</ele>
        <time>2012-03-24T13:39:34Z</time>
      </trkpt>
      <trkpt lat="59.8270505139" lon="22.9941220935">
        <ele>16.2</ele>
        <time>2012-03-24T13:39:40Z</time>
      </trkpt>
      <trkpt lat="59.8270671939" lon="22.9943998696">
        <ele>16.2</ele>
        <time>2012-03-24T13:39:46Z</time>
      </trkpt>
      <trkpt lat="59.8270766654" lon="22.9947096646">
        <ele>16.2</ele>
        <time>2012-03-24T13:39:52Z</time>
      </trkpt>
      <trkpt lat="59.8270696246" lon="22.9950205493">
        <ele>16.2</ele>
        <time>2012-03-24T13:39:58Z</time>
      </trkpt>
      <trkpt lat="59.8270654337" lon="22.9953891853">
        <ele>16.2</ele>
        <time>2012-03-24T13:40:05Z</time>
      </trkpt>
      <trkpt lat="59.8270666072" lon="22.9956552268">
        <ele>16.2</ele>
        <time>2012-03-24T13:40:10Z</time>
      </trkpt>
      <trkpt lat="59.8270575547" lon="22.9959889102">
        <ele>16.2</ele>
        <time>2012-03-24T13:40:16Z</time>
      </trkpt>
      <trkpt lat="59.8270411262" lon="22.9962916645">
        <ele>16.2</ele>
        <time>2012-03-24T13:40:22Z</time>
      </trkpt>
      <trkpt lat="59.8270366" lon="22.9965696921">
        <ele>16.2</ele>
        <time>2012-03-24T13:40:28Z</time>
      </trkpt>
      <trkpt lat="59.8270213449" lon="22.9968242504">
        <ele>16.2</ele>
        <time>2012-03-24T13:40:33Z</time>
      </trkpt>
      <trkpt lat="59.826999552" lon="22.9970977518">
        <ele>16.2</ele>
        <time>2012-03-24T13:40:38Z</time>
      </trkpt>
      <trkpt lat="59.8269840454" lon="22.9974098937">
        <ele>16.2</ele>
        <time>2012-03-24T13:40:44Z</time>
      </trkpt>
      <trkpt lat="59.8269591512" lon="22.9977409788">
        <ele>16.2</ele>
        <time>2012-03-24T13:40:51Z</time>
      </trkpt>
      <trkpt lat="59.8269620849" lon="22.9983704595">
        <ele>16.2</ele>
        <time>2012-03-24T13:41:04Z</time>
      </trkpt>
      <trkpt lat="59.8269332511" lon="22.9986847807">
        <ele>16.2</ele>
        <time>2012-03-24T13:41:10Z</time>
      </trkpt>
      <trkpt lat="59.826894862" lon="22.9989938214">
        <ele>16.2</ele>
        <time>2012-03-24T13:41:16Z</time>
      </trkpt>
      <trkpt lat="59.82685136" lon="22.9993648043">
        <ele>16.2</ele>
        <time>2012-03-24T13:41:23Z</time>
      </trkpt>
      <trkpt lat="59.8268123841" lon="22.9996512138">
        <ele>16.2</ele>
        <time>2012-03-24T13:41:29Z</time>
      </trkpt>
      <trkpt lat="59.826784221" lon="22.9998978093">
        <ele>16.2</ele>
        <time>2012-03-24T13:41:34Z</time>
      </trkpt>
      <trkpt lat="59.8267393778" lon="23.0002427245">
        <ele>16.2</ele>
        <time>2012-03-24T13:41:41Z</time>
      </trkpt>
      <trkpt lat="59.8266954566" lon="23.0005028148">
        <ele>16.2</ele>
        <time>2012-03-24T13:41:46Z</time>
      </trkpt>
      <trkpt lat="59.8266292396" lon="23.0008462213">
        <ele>16.2</ele>
        <time>2012-03-24T13:41:53Z</time>
      </trkpt>
      <trkpt lat="59.8265696443" lon="23.0011859397">
        <ele>16.2</ele>
        <time>2012-03-24T13:42:00Z</time>
      </trkpt>
      <trkpt lat="59.8264963027" lon="23.0014585191">
        <ele>16.2</ele>
        <time>2012-03-24T13:42:06Z</time>
      </trkpt>
      <trkpt lat="59.8264248889" lon="23.0017383069">
        <ele>16.2</ele>
        <time>2012-03-24T13:42:12Z</time>
      </trkpt>
      <trkpt lat="59.8263497033" lon="23.0020259737">
        <ele>16.2</ele>
        <time>2012-03-24T13:42:18Z</time>
      </trkpt>
      <trkpt lat="59.8262772836" lon="23.0023159874">
        <ele>16.2</ele>
        <time>2012-03-24T13:42:24Z</time>
      </trkpt>
      <trkpt lat="59.8262120725" lon="23.0025528599">
        <ele>16.2</ele>
        <time>2012-03-24T13:42:29Z</time>
      </trkpt>
      <trkpt lat="59.8261347075" lon="23.0027800094">
        <ele>16.2</ele>
        <time>2012-03-24T13:42:34Z</time>
      </trkpt>
      <trkpt lat="59.8260644672" lon="23.0030213243">
        <ele>16.2</ele>
        <time>2012-03-24T13:42:39Z</time>
      </trkpt>
      <trkpt lat="59.8259802291" lon="23.003290551">
        <ele>15.8</ele>
        <time>2012-03-24T13:42:45Z</time>
      </trkpt>
      <trkpt lat="59.8258835858" lon="23.0036181994">
        <ele>15</ele>
        <time>2012-03-24T13:42:52Z</time>
      </trkpt>
      <trkpt lat="59.8257118407" lon="23.004121784">
        <ele>14.4</ele>
        <time>2012-03-24T13:43:03Z</time>
      </trkpt>
      <trkpt lat="59.8256024569" lon="23.0044436489">
        <ele>14.2</ele>
        <time>2012-03-24T13:43:10Z</time>
      </trkpt>
      <trkpt lat="59.8255079929" lon="23.0046863049">
        <ele>14.2</ele>
        <time>2012-03-24T13:43:16Z</time>
      </trkpt>
      <trkpt lat="59.8254631497" lon="23.0048287134">
        <ele>14.2</ele>
        <time>2012-03-24T13:43:20Z</time>
      </trkpt>
      <trkpt lat="59.8254012075" lon="23.0050165518">
        <ele>14.2</ele>
        <time>2012-03-24T13:43:29Z</time>
      </trkpt>
      <trkpt lat="59.8253701106" lon="23.0052343974">
        <ele>14</ele>
        <time>2012-03-24T13:43:35Z</time>
      </trkpt>
      <trkpt lat="59.8253233396" lon="23.0055452821">
        <ele>14</ele>
        <time>2012-03-24T13:43:41Z</time>
      </trkpt>
      <trkpt lat="59.8253237587" lon="23.0058633752">
        <ele>14</ele>
        <time>2012-03-24T13:43:47Z</time>
      </trkpt>
      <trkpt lat="59.8253335655" lon="23.0059611919">
        <ele>14</ele>
        <time>2012-03-24T13:43:49Z</time>
      </trkpt>
      <trkpt lat="59.825307414" lon="23.0062902653">
        <ele>14</ele>
        <time>2012-03-24T13:43:55Z</time>
      </trkpt>
      <trkpt lat="59.8252400235" lon="23.0065241203">
        <ele>14</ele>
        <time>2012-03-24T13:44:00Z</time>
      </trkpt>
      <trkpt lat="59.8251568751" lon="23.0067749068">
        <ele>14</ele>
        <time>2012-03-24T13:44:05Z</time>
      </trkpt>
      <trkpt lat="59.8251068351" lon="23.0070668484">
        <ele>14</ele>
        <time>2012-03-24T13:44:10Z</time>
      </trkpt>
      <trkpt lat="59.8250837011" lon="23.0074488954">
        <ele>14</ele>
        <time>2012-03-24T13:44:16Z</time>
      </trkpt>
      <trkpt lat="59.8251410333" lon="23.007668082">
        <ele>14</ele>
        <time>2012-03-24T13:44:20Z</time>
      </trkpt>
      <trkpt lat="59.8252771553" lon="23.0077754542">
        <ele>14</ele>
        <time>2012-03-24T13:44:25Z</time>
      </trkpt>
      <trkpt lat="59.8254312985" lon="23.0078498855">
        <ele>14</ele>
        <time>2012-03-24T13:44:30Z</time>
      </trkpt>
      <trkpt lat="59.8255708571" lon="23.0079407453">
        <ele>14.4</ele>
        <time>2012-03-24T13:44:35Z</time>
      </trkpt>
      <trkpt lat="59.8257365673" lon="23.0080680663">
        <ele>15.2</ele>
        <time>2012-03-24T13:44:41Z</time>
      </trkpt>
      <trkpt lat="59.8259035347" lon="23.0082078764">
        <ele>15.6</ele>
        <time>2012-03-24T13:44:48Z</time>
      </trkpt>
      <trkpt lat="59.8261213803" lon="23.0083402266">
        <ele>16</ele>
        <time>2012-03-24T13:44:56Z</time>
      </trkpt>
      <trkpt lat="59.8262666386" lon="23.0083542244">
        <ele>16</ele>
        <time>2012-03-24T13:45:02Z</time>
      </trkpt>
      <trkpt lat="59.8262812231" lon="23.0083123149">
        <ele>16</ele>
        <time>2012-03-24T13:45:03Z</time>
      </trkpt>
      <trkpt lat="59.8263212886" lon="23.0081626141">
        <ele>16.2</ele>
        <time>2012-03-24T13:45:06Z</time>
      </trkpt>
      <trkpt lat="59.8264289122" lon="23.0077552538">
        <ele>16.2</ele>
        <time>2012-03-24T13:45:14Z</time>
      </trkpt>
      <trkpt lat="59.8265211131" lon="23.0074626417">
        <ele>16.2</ele>
        <time>2012-03-24T13:45:20Z</time>
      </trkpt>
      <trkpt lat="59.8266185946" lon="23.0071615638">
        <ele>16.2</ele>
        <time>2012-03-24T13:45:26Z</time>
      </trkpt>
      <trkpt lat="59.8267214405" lon="23.0068918343">
        <ele>16.2</ele>
        <time>2012-03-24T13:45:32Z</time>
      </trkpt>
      <trkpt lat="59.8268167427" lon="23.0066088613">
        <ele>16.2</ele>
        <time>2012-03-24T13:45:38Z</time>
      </trkpt>
      <trkpt lat="59.8268950297" lon="23.0063500283">
        <ele>16.2</ele>
        <time>2012-03-24T13:45:43Z</time>
      </trkpt>
      <trkpt lat="59.8270424673" lon="23.0063553089">
        <ele>16.2</ele>
        <time>2012-03-24T13:45:48Z</time>
      </trkpt>
      <trkpt lat="59.8270625839" lon="23.0063512856">
        <ele>16.2</ele>
        <time>2012-03-24T13:45:49Z</time>
      </trkpt>
      <trkpt lat="59.8272329041" lon="23.0063356114">
        <ele>16.2</ele>
        <time>2012-03-24T13:45:55Z</time>
      </trkpt>
      <trkpt lat="59.8272577145" lon="23.0063358629">
        <ele>16.2</ele>
        <time>2012-03-24T13:45:56Z</time>
      </trkpt>
      <trkpt lat="59.8273648352" lon="23.0064045944">
        <ele>16.2</ele>
        <time>2012-03-24T13:46:00Z</time>
      </trkpt>
      <trkpt lat="59.8275121051" lon="23.0065296524">
        <ele>16.2</ele>
        <time>2012-03-24T13:46:06Z</time>
      </trkpt>
      <trkpt lat="59.8276176333" lon="23.0066109568">
        <ele>16.2</ele>
        <time>2012-03-24T13:46:10Z</time>
      </trkpt>
      <trkpt lat="59.8277516599" lon="23.0066568896">
        <ele>17</ele>
        <time>2012-03-24T13:46:15Z</time>
      </trkpt>
      <trkpt lat="59.8278908832" lon="23.0067205082">
        <ele>17.4</ele>
        <time>2012-03-24T13:46:20Z</time>
      </trkpt>
      <trkpt lat="59.8280280949" lon="23.0068171516">
        <ele>17.8</ele>
        <time>2012-03-24T13:46:25Z</time>
      </trkpt>
      <trkpt lat="59.8281606128" lon="23.0066466637">
        <ele>18.4</ele>
        <time>2012-03-24T13:46:31Z</time>
      </trkpt>
      <trkpt lat="59.8281777118" lon="23.0066121303">
        <ele>18.6</ele>
        <time>2012-03-24T13:46:32Z</time>
      </trkpt>
      <trkpt lat="59.828258681" lon="23.0063781915">
        <ele>19.2</ele>
        <time>2012-03-24T13:46:37Z</time>
      </trkpt>
      <trkpt lat="59.828326742" lon="23.0061232979">
        <ele>19.6</ele>
        <time>2012-03-24T13:46:42Z</time>
      </trkpt>
      <trkpt lat="59.8284029335" lon="23.0059251498">
        <ele>19.8</ele>
        <time>2012-03-24T13:46:46Z</time>
      </trkpt>
      <trkpt lat="59.8284907758" lon="23.005676375">
        <ele>20</ele>
        <time>2012-03-24T13:46:51Z</time>
      </trkpt>
      <trkpt lat="59.8285761035" lon="23.0053783146">
        <ele>20.2</ele>
        <time>2012-03-24T13:46:57Z</time>
      </trkpt>
      <trkpt lat="59.8286367047" lon="23.005174383">
        <ele>20.2</ele>
        <time>2012-03-24T13:47:01Z</time>
      </trkpt>
      <trkpt lat="59.8287297438" lon="23.0049437131">
        <ele>20.2</ele>
        <time>2012-03-24T13:47:06Z</time>
      </trkpt>
      <trkpt lat="59.8288119702" lon="23.0047762427">
        <ele>20.2</ele>
        <time>2012-03-24T13:47:10Z</time>
      </trkpt>
      <trkpt lat="59.8289396265" lon="23.0045183317">
        <ele>20.2</ele>
        <time>2012-03-24T13:47:16Z</time>
      </trkpt>
      <trkpt lat="59.8290905007" lon="23.0042884161">
        <ele>20.2</ele>
        <time>2012-03-24T13:47:23Z</time>
      </trkpt>
      <trkpt lat="59.8291899101" lon="23.0040970574">
        <ele>20.2</ele>
        <time>2012-03-24T13:47:28Z</time>
      </trkpt>
      <trkpt lat="59.8292982042" lon="23.0038819778">
        <ele>20.4</ele>
        <time>2012-03-24T13:47:34Z</time>
      </trkpt>
      <trkpt lat="59.8294133715" lon="23.0036328677">
        <ele>21.2</ele>
        <time>2012-03-24T13:47:40Z</time>
      </trkpt>
      <trkpt lat="59.8294698655" lon="23.0035236516">
        <ele>21.6</ele>
        <time>2012-03-24T13:47:44Z</time>
      </trkpt>
      <trkpt lat="59.829543291" lon="23.0034084005">
        <ele>21.8</ele>
        <time>2012-03-24T13:47:49Z</time>
      </trkpt>
      <trkpt lat="59.8296867891" lon="23.0033278504">
        <ele>22</ele>
        <time>2012-03-24T13:47:54Z</time>
      </trkpt>
      <trkpt lat="59.8299531659" lon="23.0030905588">
        <ele>21.8</ele>
        <time>2012-03-24T13:48:04Z</time>
      </trkpt>
      <trkpt lat="59.8300323748" lon="23.0028902314">
        <ele>21.2</ele>
        <time>2012-03-24T13:48:08Z</time>
      </trkpt>
      <trkpt lat="59.8301197981" lon="23.0026586395">
        <ele>20.8</ele>
        <time>2012-03-24T13:48:13Z</time>
      </trkpt>
      <trkpt lat="59.8301852607" lon="23.0023943582">
        <ele>20.6</ele>
        <time>2012-03-24T13:48:18Z</time>
      </trkpt>
      <trkpt lat="59.8302077242" lon="23.0020499459">
        <ele>20.4</ele>
        <time>2012-03-24T13:48:24Z</time>
      </trkpt>
      <trkpt lat="59.8302470353" lon="23.0017796297">
        <ele>20.2</ele>
        <time>2012-03-24T13:48:29Z</time>
      </trkpt>
      <trkpt lat="59.8302978296" lon="23.0015785479">
        <ele>20.2</ele>
        <time>2012-03-24T13:48:33Z</time>
      </trkpt>
      <trkpt lat="59.8303383142" lon="23.001361289">
        <ele>20.2</ele>
        <time>2012-03-24T13:48:37Z</time>
      </trkpt>
      <trkpt lat="59.8304363824" lon="23.0011392525">
        <ele>20.2</ele>
        <time>2012-03-24T13:48:42Z</time>
      </trkpt>
      <trkpt lat="59.8304539844" lon="23.0011110893">
        <ele>20.2</ele>
        <time>2012-03-24T13:48:43Z</time>
      </trkpt>
      <trkpt lat="59.830560686" lon="23.0009595446">
        <ele>20.2</ele>
        <time>2012-03-24T13:48:51Z</time>
      </trkpt>
      <trkpt lat="59.8305822275" lon="23.0008492388">
        <ele>20.2</ele>
        <time>2012-03-24T13:48:53Z</time>
      </trkpt>
      <trkpt lat="59.8306154198" lon="23.0006811817">
        <ele>20.2</ele>
        <time>2012-03-24T13:48:56Z</time>
      </trkpt>
      <trkpt lat="59.8306113127" lon="23.0002300678">
        <ele>20.2</ele>
        <time>2012-03-24T13:49:03Z</time>
      </trkpt>
      <trkpt lat="59.8304852489" lon="22.9998742561">
        <ele>20.6</ele>
        <time>2012-03-24T13:49:10Z</time>
      </trkpt>
      <trkpt lat="59.8304303475" lon="22.9996813048">
        <ele>21.2</ele>
        <time>2012-03-24T13:49:14Z</time>
      </trkpt>
      <trkpt lat="59.8303534016" lon="22.9993882736">
        <ele>21.6</ele>
        <time>2012-03-24T13:49:20Z</time>
      </trkpt>
      <trkpt lat="59.8302875199" lon="22.9991460367">
        <ele>21.8</ele>
        <time>2012-03-24T13:49:25Z</time>
      </trkpt>
      <trkpt lat="59.8302502204" lon="22.9989012852">
        <ele>22</ele>
        <time>2012-03-24T13:49:30Z</time>
      </trkpt>
      <trkpt lat="59.8302070536" lon="22.9986945037">
        <ele>22</ele>
        <time>2012-03-24T13:49:34Z</time>
      </trkpt>
      <trkpt lat="59.8301684131" lon="22.9984932543">
        <ele>22.2</ele>
        <time>2012-03-24T13:49:38Z</time>
      </trkpt>
      <trkpt lat="59.8301599474" lon="22.9984515963">
        <ele>22.2</ele>
        <time>2012-03-24T13:49:39Z</time>
      </trkpt>
      <trkpt lat="59.8301283476" lon="22.9982003069">
        <ele>22.2</ele>
        <time>2012-03-24T13:49:43Z</time>
      </trkpt>
      <trkpt lat="59.8301028666" lon="22.997896463">
        <ele>22.2</ele>
        <time>2012-03-24T13:49:48Z</time>
      </trkpt>
      <trkpt lat="59.8300691714" lon="22.9975310122">
        <ele>22.2</ele>
        <time>2012-03-24T13:49:54Z</time>
      </trkpt>
      <trkpt lat="59.8300516532" lon="22.9974576706">
        <ele>22.2</ele>
        <time>2012-03-24T13:49:55Z</time>
      </trkpt>
      <trkpt lat="59.8300114201" lon="22.9971906232">
        <ele>22.2</ele>
        <time>2012-03-24T13:50:00Z</time>
      </trkpt>
      <trkpt lat="59.8299911359" lon="22.9970364801">
        <ele>22.2</ele>
        <time>2012-03-24T13:50:02Z</time>
      </trkpt>
      <trkpt lat="59.8299668284" lon="22.9966090032">
        <ele>22.2</ele>
        <time>2012-03-24T13:50:09Z</time>
      </trkpt>
      <trkpt lat="59.8299568539" lon="22.9962940114">
        <ele>22.2</ele>
        <time>2012-03-24T13:50:14Z</time>
      </trkpt>
      <trkpt lat="59.8299352286" lon="22.9959809474">
        <ele>22.2</ele>
        <time>2012-03-24T13:50:19Z</time>
      </trkpt>
      <trkpt lat="59.8299250027" lon="22.9956481022">
        <ele>22.2</ele>
        <time>2012-03-24T13:50:24Z</time>
      </trkpt>
      <trkpt lat="59.8299009466" lon="22.9953685658">
        <ele>23</ele>
        <time>2012-03-24T13:50:28Z</time>
      </trkpt>
      <trkpt lat="59.8298596239" lon="22.995054496">
        <ele>23.4</ele>
        <time>2012-03-24T13:50:33Z</time>
      </trkpt>
      <trkpt lat="59.8298075723" lon="22.9947285239">
        <ele>23.8</ele>
        <time>2012-03-24T13:50:38Z</time>
      </trkpt>
      <trkpt lat="59.8297778165" lon="22.9943614805">
        <ele>24</ele>
        <time>2012-03-24T13:50:43Z</time>
      </trkpt>
      <trkpt lat="59.8297315484" lon="22.9940081834">
        <ele>24</ele>
        <time>2012-03-24T13:50:48Z</time>
      </trkpt>
      <trkpt lat="59.8296981047" lon="22.9936543834">
        <ele>24.2</ele>
        <time>2012-03-24T13:50:53Z</time>
      </trkpt>
      <trkpt lat="59.8296457178" lon="22.9932037725">
        <ele>24.2</ele>
        <time>2012-03-24T13:51:00Z</time>
      </trkpt>
      <trkpt lat="59.8296117711" lon="22.9928442728">
        <ele>24.2</ele>
        <time>2012-03-24T13:51:05Z</time>
      </trkpt>
      <trkpt lat="59.8295322269" lon="22.9921645845">
        <ele>24.2</ele>
        <time>2012-03-24T13:51:15Z</time>
      </trkpt>
      <trkpt lat="59.8294742241" lon="22.9918200046">
        <ele>24.2</ele>
        <time>2012-03-24T13:51:20Z</time>
      </trkpt>
      <trkpt lat="59.8294403612" lon="22.991632753">
        <ele>23.8</ele>
        <time>2012-03-24T13:51:24Z</time>
      </trkpt>
      <trkpt lat="59.8294202447" lon="22.9914719881">
        <ele>23</ele>
        <time>2012-03-24T13:51:30Z</time>
      </trkpt>
      <trkpt lat="59.8293935064" lon="22.9912979799">
        <ele>22.2</ele>
        <time>2012-03-24T13:51:36Z</time>
      </trkpt>
      <trkpt lat="59.8293745633" lon="22.991178454">
        <ele>21.6</ele>
        <time>2012-03-24T13:51:40Z</time>
      </trkpt>
      <trkpt lat="59.8293791734" lon="22.9910844929">
        <ele>21</ele>
        <time>2012-03-24T13:51:44Z</time>
      </trkpt>
      <trkpt lat="59.8293451429" lon="22.9905985942">
        <ele>20.4</ele>
        <time>2012-03-24T13:51:56Z</time>
      </trkpt>
      <trkpt lat="59.8293069214" lon="22.9902452971">
        <ele>20.4</ele>
        <time>2012-03-24T13:52:01Z</time>
      </trkpt>
      <trkpt lat="59.829269119" lon="22.9898726378">
        <ele>20.2</ele>
        <time>2012-03-24T13:52:06Z</time>
      </trkpt>
      <trkpt lat="59.8293071729" lon="22.9895494317">
        <ele>20.2</ele>
        <time>2012-03-24T13:52:11Z</time>
      </trkpt>
      <trkpt lat="59.8293386888" lon="22.9894398803">
        <ele>20.2</ele>
        <time>2012-03-24T13:52:13Z</time>
      </trkpt>
      <trkpt lat="59.8294655908" lon="22.9894065203">
        <ele>20.2</ele>
        <time>2012-03-24T13:52:17Z</time>
      </trkpt>
      <trkpt lat="59.8296996972" lon="22.9894982183">
        <ele>20.2</ele>
        <time>2012-03-24T13:52:24Z</time>
      </trkpt>
      <trkpt lat="59.8299073169" lon="22.9895837975">
        <ele>20.2</ele>
        <time>2012-03-24T13:52:30Z</time>
      </trkpt>
      <trkpt lat="59.8301143498" lon="22.9896494278">
        <ele>20.2</ele>
        <time>2012-03-24T13:52:36Z</time>
      </trkpt>
      <trkpt lat="59.8303024397" lon="22.9897093584">
        <ele>20.2</ele>
        <time>2012-03-24T13:52:41Z</time>
      </trkpt>
      <trkpt lat="59.830499079" lon="22.9897681155">
        <ele>19.6</ele>
        <time>2012-03-24T13:52:47Z</time>
      </trkpt>
      <trkpt lat="59.8306989035" lon="22.9898159761">
        <ele>18.8</ele>
        <time>2012-03-24T13:52:53Z</time>
      </trkpt>
      <trkpt lat="59.8308000731" lon="22.9898306445">
        <ele>18.6</ele>
        <time>2012-03-24T13:52:57Z</time>
      </trkpt>
      <trkpt lat="59.8308277333" lon="22.9895594062">
        <ele>18.4</ele>
        <time>2012-03-24T13:53:02Z</time>
      </trkpt>
      <trkpt lat="59.830893196" lon="22.9892925265">
        <ele>18.4</ele>
        <time>2012-03-24T13:53:07Z</time>
      </trkpt>
      <trkpt lat="59.8309744166" lon="22.9889442585">
        <ele>18.2</ele>
        <time>2012-03-24T13:53:13Z</time>
      </trkpt>
      <trkpt lat="59.8309802839" lon="22.9886938074">
        <ele>18.2</ele>
        <time>2012-03-24T13:53:17Z</time>
      </trkpt>
      <trkpt lat="59.8310114646" lon="22.9884430209">
        <ele>18.2</ele>
        <time>2012-03-24T13:53:21Z</time>
      </trkpt>
      <trkpt lat="59.8310646058" lon="22.9881707768">
        <ele>18.2</ele>
        <time>2012-03-24T13:53:26Z</time>
      </trkpt>
      <trkpt lat="59.831078436" lon="22.9880266081">
        <ele>18.2</ele>
        <time>2012-03-24T13:53:29Z</time>
      </trkpt>
      <trkpt lat="59.8310149012" lon="22.9877621592">
        <ele>18.2</ele>
        <time>2012-03-24T13:53:34Z</time>
      </trkpt>
      <trkpt lat="59.8309235384" lon="22.9874023242">
        <ele>18.2</ele>
        <time>2012-03-24T13:53:40Z</time>
      </trkpt>
      <trkpt lat="59.8308453353" lon="22.9871125619">
        <ele>17.4</ele>
        <time>2012-03-24T13:53:45Z</time>
      </trkpt>
      <trkpt lat="59.830766294" lon="22.9867806387">
        <ele>16.8</ele>
        <time>2012-03-24T13:53:51Z</time>
      </trkpt>
      <trkpt lat="59.8306431639" lon="22.9863268426">
        <ele>16.4</ele>
        <time>2012-03-24T13:53:59Z</time>
      </trkpt>
      <trkpt lat="59.8305113166" lon="22.9856883095">
        <ele>16.2</ele>
        <time>2012-03-24T13:54:11Z</time>
      </trkpt>
      <trkpt lat="59.8305031023" lon="22.9856134591">
        <ele>16.2</ele>
        <time>2012-03-24T13:54:13Z</time>
      </trkpt>
      <trkpt lat="59.8305318523" lon="22.9852793566">
        <ele>16.2</ele>
        <time>2012-03-24T13:54:19Z</time>
      </trkpt>
      <trkpt lat="59.83051995" lon="22.9852112956">
        <ele>16.2</ele>
        <time>2012-03-24T13:54:20Z</time>
      </trkpt>
      <trkpt lat="59.8304645456" lon="22.9848973934">
        <ele>16.2</ele>
        <time>2012-03-24T13:54:25Z</time>
      </trkpt>
      <trkpt lat="59.8304507155" lon="22.9846370516">
        <ele>16.2</ele>
        <time>2012-03-24T13:54:30Z</time>
      </trkpt>
      <trkpt lat="59.8304605223" lon="22.9843439366">
        <ele>16.2</ele>
        <time>2012-03-24T13:54:35Z</time>
      </trkpt>
      <trkpt lat="59.8304849136" lon="22.9841696769">
        <ele>16.8</ele>
        <time>2012-03-24T13:54:39Z</time>
      </trkpt>
      <trkpt lat="59.8305100593" lon="22.9840965029">
        <ele>17.4</ele>
        <time>2012-03-24T13:54:44Z</time>
      </trkpt>
      <trkpt lat="59.8305295053" lon="22.983996423">
        <ele>18.2</ele>
        <time>2012-03-24T13:54:49Z</time>
      </trkpt>
      <trkpt lat="59.8305347859" lon="22.9839706905">
        <ele>18.4</ele>
        <time>2012-03-24T13:54:50Z</time>
      </trkpt>
      <trkpt lat="59.8305563274" lon="22.9838136137">
        <ele>19</ele>
        <time>2012-03-24T13:54:54Z</time>
      </trkpt>
      <trkpt lat="59.8306291661" lon="22.9836357498">
        <ele>19.6</ele>
        <time>2012-03-24T13:54:59Z</time>
      </trkpt>
      <trkpt lat="59.8306898511" lon="22.9834844565">
        <ele>20</ele>
        <time>2012-03-24T13:55:06Z</time>
      </trkpt>
      <trkpt lat="59.8307041841" lon="22.9834413736">
        <ele>20.2</ele>
        <time>2012-03-24T13:55:08Z</time>
      </trkpt>
      <trkpt lat="59.8307761846" lon="22.9834146353">
        <ele>21.2</ele>
        <time>2012-03-24T13:55:13Z</time>
      </trkpt>
      <trkpt lat="59.8307852371" lon="22.9834144677">
        <ele>21.2</ele>
        <time>2012-03-24T13:55:14Z</time>
      </trkpt>
      <trkpt lat="59.8308866581" lon="22.9833868912">
        <ele>21.8</ele>
        <time>2012-03-24T13:55:19Z</time>
      </trkpt>
      <trkpt lat="59.8309256339" lon="22.9833562973">
        <ele>21.8</ele>
        <time>2012-03-24T13:55:22Z</time>
      </trkpt>
      <trkpt lat="59.8309045115" lon="22.9833298105">
        <ele>22</ele>
        <time>2012-03-24T13:55:27Z</time>
      </trkpt>
      <trkpt lat="59.8308994824" lon="22.9833342529">
        <ele>22.2</ele>
        <time>2012-03-24T13:55:28Z</time>
      </trkpt>
      <trkpt lat="59.8309228679" lon="22.9833116217">
        <ele>22.2</ele>
        <time>2012-03-24T13:55:33Z</time>
      </trkpt>
      <trkpt lat="59.830938123" lon="22.9833435568">
        <ele>22.2</ele>
        <time>2012-03-24T13:55:39Z</time>
      </trkpt>
      <trkpt lat="59.8309702256" lon="22.9834465703">
        <ele>22.4</ele>
        <time>2012-03-24T13:55:45Z</time>
      </trkpt>
      <trkpt lat="59.8311283921" lon="22.9838017953">
        <ele>22.4</ele>
        <time>2012-03-24T13:55:55Z</time>
      </trkpt>
      <trkpt lat="59.8311585669" lon="22.9838131946">
        <ele>22.4</ele>
        <time>2012-03-24T13:55:56Z</time>
      </trkpt>
      <trkpt lat="59.8312332497" lon="22.9838224147">
        <ele>22.4</ele>
        <time>2012-03-24T13:55:59Z</time>
      </trkpt>
      <trkpt lat="59.8313190803" lon="22.9839017913">
        <ele>22.4</ele>
        <time>2012-03-24T13:56:04Z</time>
      </trkpt>
      <trkpt lat="59.8313260373" lon="22.9839012884">
        <ele>22.4</ele>
        <time>2012-03-24T13:56:05Z</time>
      </trkpt>
      <trkpt lat="59.8313358441" lon="22.9838973489">
        <ele>22.4</ele>
        <time>2012-03-24T13:56:06Z</time>
      </trkpt>
      <trkpt lat="59.8313947689" lon="22.9839205668">
        <ele>22.4</ele>
        <time>2012-03-24T13:56:10Z</time>
      </trkpt>
      <trkpt lat="59.8314304758" lon="22.9839464669">
        <ele>22.4</ele>
        <time>2012-03-24T13:56:12Z</time>
      </trkpt>
      <trkpt lat="59.8315792545" lon="22.9839597941">
        <ele>22.4</ele>
        <time>2012-03-24T13:56:17Z</time>
      </trkpt>
      <trkpt lat="59.8316469802" lon="22.9839628116">
        <ele>22.4</ele>
        <time>2012-03-24T13:56:20Z</time>
      </trkpt>
      <trkpt lat="59.8315903186" lon="22.9840685911">
        <ele>22.4</ele>
        <time>2012-03-24T13:56:24Z</time>
      </trkpt>
      <trkpt lat="59.8315954316" lon="22.9840641487">
        <ele>22.4</ele>
        <time>2012-03-24T13:56:31Z</time>
      </trkpt>
      <trkpt lat="59.8315978623" lon="22.9840425234">
        <ele>22.4</ele>
        <time>2012-03-24T13:56:33Z</time>
      </trkpt>
      <trkpt lat="59.8316165539" lon="22.983811183">
        <ele>22.4</ele>
        <time>2012-03-24T13:56:38Z</time>
      </trkpt>
      <trkpt lat="59.8316132012" lon="22.9836142922">
        <ele>22.4</ele>
        <time>2012-03-24T13:56:41Z</time>
      </trkpt>
      <trkpt lat="59.8315957668" lon="22.9833157289">
        <ele>22.4</ele>
        <time>2012-03-24T13:56:46Z</time>
      </trkpt>
      <trkpt lat="59.8316074177" lon="22.9830718156">
        <ele>22.4</ele>
        <time>2012-03-24T13:56:52Z</time>
      </trkpt>
      <trkpt lat="59.8315950125" lon="22.9828850669">
        <ele>22.4</ele>
        <time>2012-03-24T13:56:56Z</time>
      </trkpt>
      <trkpt lat="59.8315892289" lon="22.9827916925">
        <ele>22.4</ele>
        <time>2012-03-24T13:56:58Z</time>
      </trkpt>
      <trkpt lat="59.8315833616" lon="22.9826027645">
        <ele>22.4</ele>
        <time>2012-03-24T13:57:03Z</time>
      </trkpt>
      <trkpt lat="59.8315736386" lon="22.9825606035">
        <ele>22.4</ele>
        <time>2012-03-24T13:57:04Z</time>
      </trkpt>
      <trkpt lat="59.8315281249" lon="22.9825021817">
        <ele>22.4</ele>
        <time>2012-03-24T13:57:08Z</time>
      </trkpt>
      <trkpt lat="59.8315448049" lon="22.9825083843">
        <ele>22.4</ele>
        <time>2012-03-24T13:57:15Z</time>
      </trkpt>
      <trkpt lat="59.8315883069" lon="22.9825602682">
        <ele>22.4</ele>
        <time>2012-03-24T13:57:20Z</time>
      </trkpt>
      <trkpt lat="59.8316920749" lon="22.9826260661">
        <ele>22.4</ele>
        <time>2012-03-24T13:57:25Z</time>
      </trkpt>
      <trkpt lat="59.8317958428" lon="22.9826683109">
        <ele>22.4</ele>
        <time>2012-03-24T13:57:29Z</time>
      </trkpt>
      <trkpt lat="59.8318770634" lon="22.9826029321">
        <ele>22.4</ele>
        <time>2012-03-24T13:57:33Z</time>
      </trkpt>
      <trkpt lat="59.8319926498" lon="22.9825370504">
        <ele>22.4</ele>
        <time>2012-03-24T13:57:38Z</time>
      </trkpt>
      <trkpt lat="59.8320362357" lon="22.9825178558">
        <ele>22.4</ele>
        <time>2012-03-24T13:57:40Z</time>
      </trkpt>
      <trkpt lat="59.8321187974" lon="22.9824565841">
        <ele>22.4</ele>
        <time>2012-03-24T13:57:44Z</time>
      </trkpt>
      <trkpt lat="59.832305127" lon="22.9824371381">
        <ele>22.4</ele>
        <time>2012-03-24T13:57:52Z</time>
      </trkpt>
      <trkpt lat="59.8324470326" lon="22.9824720906">
        <ele>22.4</ele>
        <time>2012-03-24T13:57:59Z</time>
      </trkpt>
      <trkpt lat="59.8325708333" lon="22.9824476155">
        <ele>22.4</ele>
        <time>2012-03-24T13:58:03Z</time>
      </trkpt>
      <trkpt lat="59.8325896925" lon="22.9824440113">
        <ele>22.4</ele>
        <time>2012-03-24T13:58:04Z</time>
      </trkpt>
      <trkpt lat="59.8326866711" lon="22.9825704941">
        <ele>22.4</ele>
        <time>2012-03-24T13:58:09Z</time>
      </trkpt>
      <trkpt lat="59.8327086317" lon="22.9826064525">
        <ele>22.4</ele>
        <time>2012-03-24T13:58:13Z</time>
      </trkpt>
      <trkpt lat="59.8327015909" lon="22.9825368827">
        <ele>22.4</ele>
        <time>2012-03-24T13:58:18Z</time>
      </trkpt>
      <trkpt lat="59.832632524" lon="22.9825559935">
        <ele>22.4</ele>
        <time>2012-03-24T13:58:22Z</time>
      </trkpt>
      <trkpt lat="59.8326072107" lon="22.9825238908">
        <ele>22.4</ele>
        <time>2012-03-24T13:58:23Z</time>
      </trkpt>
      <trkpt lat="59.8325597691" lon="22.9823742739">
        <ele>22.4</ele>
        <time>2012-03-24T13:58:26Z</time>
      </trkpt>
      <trkpt lat="59.8325457714" lon="22.982248713">
        <ele>22.4</ele>
        <time>2012-03-24T13:58:29Z</time>
      </trkpt>
      <trkpt lat="59.832570498" lon="22.9821386587">
        <ele>22.4</ele>
        <time>2012-03-24T13:58:31Z</time>
      </trkpt>
      <trkpt lat="59.8326426661" lon="22.9818734553">
        <ele>22.4</ele>
        <time>2012-03-24T13:58:36Z</time>
      </trkpt>
      <trkpt lat="59.8326518024" lon="22.9818195597">
        <ele>22.4</ele>
        <time>2012-03-24T13:58:37Z</time>
      </trkpt>
      <trkpt lat="59.8326771996" lon="22.9815166379">
        <ele>22.4</ele>
        <time>2012-03-24T13:58:43Z</time>
      </trkpt>
      <trkpt lat="59.8326733439" lon="22.981457294">
        <ele>22.4</ele>
        <time>2012-03-24T13:58:44Z</time>
      </trkpt>
      <trkpt lat="59.8326803009" lon="22.9812350898">
        <ele>22.4</ele>
        <time>2012-03-24T13:58:48Z</time>
      </trkpt>
      <trkpt lat="59.8326896048" lon="22.9811922583">
        <ele>22.4</ele>
        <time>2012-03-24T13:58:49Z</time>
      </trkpt>
      <trkpt lat="59.8327285806" lon="22.9809203495">
        <ele>22.4</ele>
        <time>2012-03-24T13:58:55Z</time>
      </trkpt>
      <trkpt lat="59.8327215398" lon="22.9808517017">
        <ele>22.4</ele>
        <time>2012-03-24T13:58:57Z</time>
      </trkpt>
      <trkpt lat="59.8327642037" lon="22.9806165056">
        <ele>22.4</ele>
        <time>2012-03-24T13:59:03Z</time>
      </trkpt>
      <trkpt lat="59.8327690652" lon="22.9805827266">
        <ele>22.4</ele>
        <time>2012-03-24T13:59:05Z</time>
      </trkpt>
      <trkpt lat="59.8327523014" lon="22.9805483608">
        <ele>22.4</ele>
        <time>2012-03-24T13:59:09Z</time>
      </trkpt>
      <trkpt lat="59.8327845717" lon="22.9804705767">
        <ele>22.8</ele>
        <time>2012-03-24T13:59:15Z</time>
      </trkpt>
      <trkpt lat="59.8327824762" lon="22.9803458541">
        <ele>23.8</ele>
        <time>2012-03-24T13:59:24Z</time>
      </trkpt>
      <trkpt lat="59.8327838173" lon="22.9803231391">
        <ele>23.8</ele>
        <time>2012-03-24T13:59:25Z</time>
      </trkpt>
      <trkpt lat="59.8327466017" lon="22.9801757015">
        <ele>25</ele>
        <time>2012-03-24T13:59:32Z</time>
      </trkpt>
      <trkpt lat="59.8326803847" lon="22.9800884459">
        <ele>25.6</ele>
        <time>2012-03-24T13:59:36Z</time>
      </trkpt>
      <trkpt lat="59.8325902793" lon="22.9800019447">
        <ele>25.8</ele>
        <time>2012-03-24T13:59:40Z</time>
      </trkpt>
      <trkpt lat="59.8325715876" lon="22.979826763">
        <ele>26</ele>
        <time>2012-03-24T13:59:44Z</time>
      </trkpt>
      <trkpt lat="59.8325092263" lon="22.9795411917">
        <ele>26.4</ele>
        <time>2012-03-24T13:59:51Z</time>
      </trkpt>
      <trkpt lat="59.8325183626" lon="22.9794265273">
        <ele>26.4</ele>
        <time>2012-03-24T13:59:55Z</time>
      </trkpt>
      <trkpt lat="59.8325486212" lon="22.9793617352">
        <ele>26.4</ele>
        <time>2012-03-24T13:59:58Z</time>
      </trkpt>
      <trkpt lat="59.8325585957" lon="22.9793429597">
        <ele>26.4</ele>
        <time>2012-03-24T13:59:59Z</time>
      </trkpt>
      <trkpt lat="59.832566307" lon="22.9793061632">
        <ele>26.6</ele>
        <time>2012-03-24T14:00:01Z</time>
      </trkpt>
      <trkpt lat="59.8325919556" lon="22.9791612401">
        <ele>27.6</ele>
        <time>2012-03-24T14:00:07Z</time>
      </trkpt>
      <trkpt lat="59.8326350386" lon="22.979077505">
        <ele>27.8</ele>
        <time>2012-03-24T14:00:10Z</time>
      </trkpt>
      <trkpt lat="59.8326468571" lon="22.9789009821">
        <ele>28</ele>
        <time>2012-03-24T14:00:14Z</time>
      </trkpt>
      <trkpt lat="59.8326275787" lon="22.9788583183">
        <ele>28.2</ele>
        <time>2012-03-24T14:00:15Z</time>
      </trkpt>
      <trkpt lat="59.8325470287" lon="22.978722783">
        <ele>28.2</ele>
        <time>2012-03-24T14:00:19Z</time>
      </trkpt>
      <trkpt lat="59.8325337853" lon="22.9786729945">
        <ele>28.4</ele>
        <time>2012-03-24T14:00:20Z</time>
      </trkpt>
      <trkpt lat="59.8325168538" lon="22.9786047658">
        <ele>28.4</ele>
        <time>2012-03-24T14:00:23Z</time>
      </trkpt>
      <trkpt lat="59.8325112379" lon="22.9784802946">
        <ele>28.4</ele>
        <time>2012-03-24T14:00:28Z</time>
      </trkpt>
      <trkpt lat="59.8325225535" lon="22.9783802985">
        <ele>28.4</ele>
        <time>2012-03-24T14:00:32Z</time>
      </trkpt>
      <trkpt lat="59.8325093101" lon="22.9783300071">
        <ele>28.6</ele>
        <time>2012-03-24T14:00:34Z</time>
      </trkpt>
      <trkpt lat="59.8324961505" lon="22.9782049492">
        <ele>28.6</ele>
        <time>2012-03-24T14:00:37Z</time>
      </trkpt>
      <trkpt lat="59.8325064603" lon="22.9781405762">
        <ele>28.6</ele>
        <time>2012-03-24T14:00:40Z</time>
      </trkpt>
      <trkpt lat="59.8324988327" lon="22.9780565895">
        <ele>28.6</ele>
        <time>2012-03-24T14:00:44Z</time>
      </trkpt>
      <trkpt lat="59.8324899479" lon="22.9780420889">
        <ele>28.6</ele>
        <time>2012-03-24T14:00:46Z</time>
      </trkpt>
      <trkpt lat="59.8324780456" lon="22.9780208826">
        <ele>28.6</ele>
        <time>2012-03-24T14:00:51Z</time>
      </trkpt>
      <trkpt lat="59.8324386507" lon="22.9779486307">
        <ele>30</ele>
        <time>2012-03-24T14:01:06Z</time>
      </trkpt>
      <trkpt lat="59.832449631" lon="22.9779358902">
        <ele>30</ele>
        <time>2012-03-24T14:01:07Z</time>
      </trkpt>
      <trkpt lat="59.8324766207" lon="22.9778497243">
        <ele>30.2</ele>
        <time>2012-03-24T14:01:11Z</time>
      </trkpt>
      <trkpt lat="59.8324768722" lon="22.9777597865">
        <ele>30.4</ele>
        <time>2012-03-24T14:01:13Z</time>
      </trkpt>
      <trkpt lat="59.8324386507" lon="22.9777165359">
        <ele>30.4</ele>
        <time>2012-03-24T14:01:17Z</time>
      </trkpt>
      <trkpt lat="59.832388024" lon="22.9776154501">
        <ele>30</ele>
        <time>2012-03-24T14:01:20Z</time>
      </trkpt>
      <trkpt lat="59.8323833302" lon="22.9775591238">
        <ele>29.4</ele>
        <time>2012-03-24T14:01:25Z</time>
      </trkpt>
      <trkpt lat="59.832399591" lon="22.9776020391">
        <ele>28.6</ele>
        <time>2012-03-24T14:01:36Z</time>
      </trkpt>
      <trkpt lat="59.8323655605" lon="22.9777452858">
        <ele>27.6</ele>
        <time>2012-03-24T14:01:41Z</time>
      </trkpt>
      <trkpt lat="59.8323313624" lon="22.9778472097">
        <ele>27.2</ele>
        <time>2012-03-24T14:01:44Z</time>
      </trkpt>
      <trkpt lat="59.8323283449" lon="22.9779550847">
        <ele>27</ele>
        <time>2012-03-24T14:01:47Z</time>
      </trkpt>
      <trkpt lat="59.8323128384" lon="22.9780090642">
        <ele>26.8</ele>
        <time>2012-03-24T14:01:49Z</time>
      </trkpt>
      <trkpt lat="59.8322720185" lon="22.9781417496">
        <ele>26.4</ele>
        <time>2012-03-24T14:01:55Z</time>
      </trkpt>
      <trkpt lat="59.8322311148" lon="22.9782745189">
        <ele>26.4</ele>
        <time>2012-03-24T14:01:59Z</time>
      </trkpt>
      <trkpt lat="59.8322146863" lon="22.9783944639">
        <ele>26.4</ele>
        <time>2012-03-24T14:02:02Z</time>
      </trkpt>
      <trkpt lat="59.8321255867" lon="22.97849907">
        <ele>26.2</ele>
        <time>2012-03-24T14:02:06Z</time>
      </trkpt>
      <trkpt lat="59.8320936517" lon="22.9785108047">
        <ele>26.2</ele>
        <time>2012-03-24T14:02:07Z</time>
      </trkpt>
      <trkpt lat="59.8319012871" lon="22.9785835596">
        <ele>26.2</ele>
        <time>2012-03-24T14:02:13Z</time>
      </trkpt>
      <trkpt lat="59.8318448769" lon="22.9786138183">
        <ele>26.2</ele>
        <time>2012-03-24T14:02:15Z</time>
      </trkpt>
      <trkpt lat="59.8317934958" lon="22.9788716455">
        <ele>26.2</ele>
        <time>2012-03-24T14:02:20Z</time>
      </trkpt>
      <trkpt lat="59.8317991955" lon="22.9789263793">
        <ele>26.2</ele>
        <time>2012-03-24T14:02:21Z</time>
      </trkpt>
      <trkpt lat="59.8318158755" lon="22.9792019762">
        <ele>26.2</ele>
        <time>2012-03-24T14:02:26Z</time>
      </trkpt>
      <trkpt lat="59.8317831023" lon="22.9794093444">
        <ele>26.2</ele>
        <time>2012-03-24T14:02:31Z</time>
      </trkpt>
      <trkpt lat="59.8317611417" lon="22.9795720371">
        <ele>26.2</ele>
        <time>2012-03-24T14:02:35Z</time>
      </trkpt>
      <trkpt lat="59.8317608064" lon="22.9796090012">
        <ele>26.2</ele>
        <time>2012-03-24T14:02:36Z</time>
      </trkpt>
      <trkpt lat="59.8317711162" lon="22.9798946564">
        <ele>27</ele>
        <time>2012-03-24T14:02:41Z</time>
      </trkpt>
      <trkpt lat="59.831779079" lon="22.9802292618">
        <ele>27.4</ele>
        <time>2012-03-24T14:02:47Z</time>
      </trkpt>
      <trkpt lat="59.8317819288" lon="22.9803664735">
        <ele>27.6</ele>
        <time>2012-03-24T14:02:49Z</time>
      </trkpt>
      <trkpt lat="59.8317654165" lon="22.980336634">
        <ele>28</ele>
        <time>2012-03-24T14:02:56Z</time>
      </trkpt>
      <trkpt lat="59.8316634926" lon="22.980152316">
        <ele>28</ele>
        <time>2012-03-24T14:03:05Z</time>
      </trkpt>
      <trkpt lat="59.8315308909" lon="22.9800733585">
        <ele>28.2</ele>
        <time>2012-03-24T14:03:10Z</time>
      </trkpt>
      <trkpt lat="59.8314619079" lon="22.9800413396">
        <ele>28.2</ele>
        <time>2012-03-24T14:03:13Z</time>
      </trkpt>
      <trkpt lat="59.8314050786" lon="22.9800030344">
        <ele>28.2</ele>
        <time>2012-03-24T14:03:17Z</time>
      </trkpt>
      <trkpt lat="59.8314015582" lon="22.9799237416">
        <ele>28.2</ele>
        <time>2012-03-24T14:03:20Z</time>
      </trkpt>
      <trkpt lat="59.8313603193" lon="22.9798289423">
        <ele>28.2</ele>
        <time>2012-03-24T14:03:23Z</time>
      </trkpt>
      <trkpt lat="59.831342382" lon="22.9798257572">
        <ele>28.2</ele>
        <time>2012-03-24T14:03:24Z</time>
      </trkpt>
      <trkpt lat="59.831245571" lon="22.9797510744">
        <ele>28.2</ele>
        <time>2012-03-24T14:03:29Z</time>
      </trkpt>
      <trkpt lat="59.8312200901" lon="22.9797226598">
        <ele>28.2</ele>
        <time>2012-03-24T14:03:30Z</time>
      </trkpt>
      <trkpt lat="59.8311000613" lon="22.9796537606">
        <ele>28.2</ele>
        <time>2012-03-24T14:03:35Z</time>
      </trkpt>
      <trkpt lat="59.8309999814" lon="22.9795629846">
        <ele>28.2</ele>
        <time>2012-03-24T14:03:39Z</time>
      </trkpt>
      <trkpt lat="59.8309635201" lon="22.9795077479">
        <ele>28.2</ele>
        <time>2012-03-24T14:03:41Z</time>
      </trkpt>
      <trkpt lat="59.8309085348" lon="22.9792982004">
        <ele>28.2</ele>
        <time>2012-03-24T14:03:46Z</time>
      </trkpt>
      <trkpt lat="59.8308750911" lon="22.9792179018">
        <ele>28</ele>
        <time>2012-03-24T14:03:48Z</time>
      </trkpt>
      <trkpt lat="59.830843156" lon="22.9791412074">
        <ele>27.2</ele>
        <time>2012-03-24T14:03:53Z</time>
      </trkpt>
      <trkpt lat="59.8308613448" lon="22.9789854717">
        <ele>26.8</ele>
        <time>2012-03-24T14:03:58Z</time>
      </trkpt>
      <trkpt lat="59.830863524" lon="22.978927888">
        <ele>26.6</ele>
        <time>2012-03-24T14:03:59Z</time>
      </trkpt>
      <trkpt lat="59.8308891727" lon="22.9785250539">
        <ele>26.4</ele>
        <time>2012-03-24T14:04:07Z</time>
      </trkpt>
      <trkpt lat="59.8309769312" lon="22.9783115669">
        <ele>26.2</ele>
        <time>2012-03-24T14:04:13Z</time>
      </trkpt>
      <trkpt lat="59.8310147335" lon="22.978284661">
        <ele>26.2</ele>
        <time>2012-03-24T14:04:15Z</time>
      </trkpt>
      <trkpt lat="59.8310614207" lon="22.9782414104">
        <ele>26.2</ele>
        <time>2012-03-24T14:04:17Z</time>
      </trkpt>
      <trkpt lat="59.8311050904" lon="22.9781736847">
        <ele>26.2</ele>
        <time>2012-03-24T14:04:19Z</time>
      </trkpt>
      <trkpt lat="59.8311169089" lon="22.9779819906">
        <ele>26.2</ele>
        <time>2012-03-24T14:04:23Z</time>
      </trkpt>
      <trkpt lat="59.8311266319" lon="22.9777840102">
        <ele>26.2</ele>
        <time>2012-03-24T14:04:27Z</time>
      </trkpt>
      <trkpt lat="59.8310869855" lon="22.9775558548">
        <ele>26.2</ele>
        <time>2012-03-24T14:04:32Z</time>
      </trkpt>
      <trkpt lat="59.8310718981" lon="22.9773504983">
        <ele>26.2</ele>
        <time>2012-03-24T14:04:38Z</time>
      </trkpt>
      <trkpt lat="59.831069635" lon="22.9773168869">
        <ele>26.2</ele>
        <time>2012-03-24T14:04:39Z</time>
      </trkpt>
      <trkpt lat="59.8310820402" lon="22.9772153821">
        <ele>26.2</ele>
        <time>2012-03-24T14:04:41Z</time>
      </trkpt>
      <trkpt lat="59.8310798609" lon="22.9771334909">
        <ele>26.2</ele>
        <time>2012-03-24T14:04:43Z</time>
      </trkpt>
      <trkpt lat="59.8311735705" lon="22.9768980433">
        <ele>26.2</ele>
        <time>2012-03-24T14:04:51Z</time>
      </trkpt>
      <trkpt lat="59.8311497659" lon="22.9769047488">
        <ele>26.2</ele>
        <time>2012-03-24T14:04:57Z</time>
      </trkpt>
      <trkpt lat="59.8311315772" lon="22.9767796909">
        <ele>26.2</ele>
        <time>2012-03-24T14:05:01Z</time>
      </trkpt>
      <trkpt lat="59.8311238659" lon="22.9767283937">
        <ele>26.2</ele>
        <time>2012-03-24T14:05:03Z</time>
      </trkpt>
      <trkpt lat="59.8310880751" lon="22.9765821295">
        <ele>26.2</ele>
        <time>2012-03-24T14:05:06Z</time>
      </trkpt>
      <trkpt lat="59.831087237" lon="22.9763037666">
        <ele>26.4</ele>
        <time>2012-03-24T14:05:11Z</time>
      </trkpt>
      <trkpt lat="59.8310255462" lon="22.9761103124">
        <ele>27</ele>
        <time>2012-03-24T14:05:15Z</time>
      </trkpt>
      <trkpt lat="59.831045076" lon="22.9759487931">
        <ele>27.4</ele>
        <time>2012-03-24T14:05:18Z</time>
      </trkpt>
      <trkpt lat="59.8310182539" lon="22.9758384873">
        <ele>27.6</ele>
        <time>2012-03-24T14:05:20Z</time>
      </trkpt>
      <trkpt lat="59.8309939464" lon="22.9756701788">
        <ele>27.6</ele>
        <time>2012-03-24T14:05:23Z</time>
      </trkpt>
      <trkpt lat="59.8310239536" lon="22.9754202305">
        <ele>27.8</ele>
        <time>2012-03-24T14:05:28Z</time>
      </trkpt>
      <trkpt lat="59.8310358559" lon="22.975149579">
        <ele>28</ele>
        <time>2012-03-24T14:05:32Z</time>
      </trkpt>
      <trkpt lat="59.8309765121" lon="22.9748767481">
        <ele>28</ele>
        <time>2012-03-24T14:05:37Z</time>
      </trkpt>
      <trkpt lat="59.8309589939" lon="22.9748314859">
        <ele>28</ele>
        <time>2012-03-24T14:05:38Z</time>
      </trkpt>
      <trkpt lat="59.8309064394" lon="22.9747254548">
        <ele>28.2</ele>
        <time>2012-03-24T14:05:42Z</time>
      </trkpt>
      <trkpt lat="59.8308926092" lon="22.9746826233">
        <ele>28.2</ele>
        <time>2012-03-24T14:05:43Z</time>
      </trkpt>
      <trkpt lat="59.8308584949" lon="22.9743704814">
        <ele>28.6</ele>
        <time>2012-03-24T14:05:49Z</time>
      </trkpt>
      <trkpt lat="59.83084039" lon="22.9743040129">
        <ele>28.8</ele>
        <time>2012-03-24T14:05:51Z</time>
      </trkpt>
      <trkpt lat="59.8307798727" lon="22.9742134046">
        <ele>29.2</ele>
        <time>2012-03-24T14:05:54Z</time>
      </trkpt>
      <trkpt lat="59.8307564034" lon="22.9741500374">
        <ele>29.4</ele>
        <time>2012-03-24T14:05:56Z</time>
      </trkpt>
      <trkpt lat="59.8307208641" lon="22.974170154">
        <ele>29.6</ele>
        <time>2012-03-24T14:06:01Z</time>
      </trkpt>
      <trkpt lat="59.8306704889" lon="22.9742758497">
        <ele>29.8</ele>
        <time>2012-03-24T14:06:04Z</time>
      </trkpt>
      <trkpt lat="59.8306481092" lon="22.9743869937">
        <ele>30</ele>
        <time>2012-03-24T14:06:11Z</time>
      </trkpt>
      <trkpt lat="59.8306606821" lon="22.9744789432">
        <ele>30.2</ele>
        <time>2012-03-24T14:06:21Z</time>
      </trkpt>
      <trkpt lat="59.830662107" lon="22.9745013228">
        <ele>30.2</ele>
        <time>2012-03-24T14:06:22Z</time>
      </trkpt>
      <trkpt lat="59.8307300004" lon="22.9746641832">
        <ele>29.6</ele>
        <time>2012-03-24T14:06:28Z</time>
      </trkpt>
      <trkpt lat="59.8308263922" lon="22.974699471">
        <ele>29.2</ele>
        <time>2012-03-24T14:06:32Z</time>
      </trkpt>
      <trkpt lat="59.830854304" lon="22.9746924302">
        <ele>29</ele>
        <time>2012-03-24T14:06:33Z</time>
      </trkpt>
      <trkpt lat="59.8309004882" lon="22.9746893289">
        <ele>28.8</ele>
        <time>2012-03-24T14:06:35Z</time>
      </trkpt>
      <trkpt lat="59.8310187568" lon="22.9747355131">
        <ele>28.6</ele>
        <time>2012-03-24T14:06:40Z</time>
      </trkpt>
      <trkpt lat="59.8311125503" lon="22.9746433122">
        <ele>28.4</ele>
        <time>2012-03-24T14:06:44Z</time>
      </trkpt>
      <trkpt lat="59.8311355167" lon="22.9746195076">
        <ele>28.4</ele>
        <time>2012-03-24T14:06:45Z</time>
      </trkpt>
      <trkpt lat="59.8312609937" lon="22.9744780212">
        <ele>28.4</ele>
        <time>2012-03-24T14:06:51Z</time>
      </trkpt>
      <trkpt lat="59.8313365147" lon="22.9742819685">
        <ele>28.2</ele>
        <time>2012-03-24T14:06:56Z</time>
      </trkpt>
      <trkpt lat="59.8314455632" lon="22.9741626941">
        <ele>28.2</ele>
        <time>2012-03-24T14:07:01Z</time>
      </trkpt>
      <trkpt lat="59.8314546995" lon="22.9741391409">
        <ele>28.2</ele>
        <time>2012-03-24T14:07:02Z</time>
      </trkpt>
      <trkpt lat="59.8315002132" lon="22.9740495384">
        <ele>28.2</ele>
        <time>2012-03-24T14:07:06Z</time>
      </trkpt>
      <trkpt lat="59.8315531868" lon="22.9739679825">
        <ele>28.2</ele>
        <time>2012-03-24T14:07:10Z</time>
      </trkpt>
      <trkpt lat="59.8315035659" lon="22.9738688247">
        <ele>28.2</ele>
        <time>2012-03-24T14:07:16Z</time>
      </trkpt>
      <trkpt lat="59.8314550347" lon="22.9737832455">
        <ele>28.2</ele>
        <time>2012-03-24T14:07:21Z</time>
      </trkpt>
      <trkpt lat="59.8314408693" lon="22.9737113288">
        <ele>28.2</ele>
        <time>2012-03-24T14:07:24Z</time>
      </trkpt>
      <trkpt lat="59.8314315654" lon="22.9736519011">
        <ele>28.2</ele>
        <time>2012-03-24T14:07:26Z</time>
      </trkpt>
      <trkpt lat="59.8314143825" lon="22.9736185411">
        <ele>28.2</ele>
        <time>2012-03-24T14:07:28Z</time>
      </trkpt>
      <trkpt lat="59.8313873928" lon="22.9735312017">
        <ele>28.2</ele>
        <time>2012-03-24T14:07:33Z</time>
      </trkpt>
      <trkpt lat="59.8313836209" lon="22.9735156114">
        <ele>28.2</ele>
        <time>2012-03-24T14:07:34Z</time>
      </trkpt>
      <trkpt lat="59.8313738979" lon="22.9734979256">
        <ele>28.2</ele>
        <time>2012-03-24T14:07:35Z</time>
      </trkpt>
      <trkpt lat="59.8313471597" lon="22.9733778968">
        <ele>28.2</ele>
        <time>2012-03-24T14:07:40Z</time>
      </trkpt>
      <trkpt lat="59.8313551225" lon="22.9732488993">
        <ele>28.2</ele>
        <time>2012-03-24T14:07:45Z</time>
      </trkpt>
      <trkpt lat="59.8313759096" lon="22.9732194789">
        <ele>28.2</ele>
        <time>2012-03-24T14:07:49Z</time>
      </trkpt>
      <trkpt lat="59.8313784242" lon="22.9732017931">
        <ele>28.2</ele>
        <time>2012-03-24T14:07:52Z</time>
      </trkpt>
      <trkpt lat="59.8314038213" lon="22.9731266074">
        <ele>28.2</ele>
        <time>2012-03-24T14:07:56Z</time>
      </trkpt>
      <trkpt lat="59.8314349182" lon="22.973068437">
        <ele>28.2</ele>
        <time>2012-03-24T14:08:03Z</time>
      </trkpt>
      <trkpt lat="59.8314558729" lon="22.9730416988">
        <ele>28.2</ele>
        <time>2012-03-24T14:08:07Z</time>
      </trkpt>
      <trkpt lat="59.8314486645" lon="22.9730810099">
        <ele>28</ele>
        <time>2012-03-24T14:08:12Z</time>
      </trkpt>
      <trkpt lat="59.8314831979" lon="22.9731867895">
        <ele>27.2</ele>
        <time>2012-03-24T14:08:17Z</time>
      </trkpt>
      <trkpt lat="59.8314903225" lon="22.9732340634">
        <ele>27</ele>
        <time>2012-03-24T14:08:20Z</time>
      </trkpt>
      <trkpt lat="59.8314976148" lon="22.9732734583">
        <ele>26.8</ele>
        <time>2012-03-24T14:08:22Z</time>
      </trkpt>
      <trkpt lat="59.8315088465" lon="22.9733900505">
        <ele>26.4</ele>
        <time>2012-03-24T14:08:28Z</time>
      </trkpt>
      <trkpt lat="59.831497531" lon="22.9734637274">
        <ele>26.4</ele>
        <time>2012-03-24T14:08:32Z</time>
      </trkpt>
      <trkpt lat="59.8314755704" lon="22.973593144">
        <ele>26.2</ele>
        <time>2012-03-24T14:08:38Z</time>
      </trkpt>
      <trkpt lat="59.8314652606" lon="22.9736040404">
        <ele>26.2</ele>
        <time>2012-03-24T14:08:39Z</time>
      </trkpt>
      <trkpt lat="59.8314347505" lon="22.9735641426">
        <ele>26.2</ele>
        <time>2012-03-24T14:08:44Z</time>
      </trkpt>
      <trkpt lat="59.8314408693" lon="22.9735550063">
        <ele>26.2</ele>
        <time>2012-03-24T14:08:45Z</time>
      </trkpt>
      <trkpt lat="59.8314618241" lon="22.9734563514">
        <ele>26.2</ele>
        <time>2012-03-24T14:08:58Z</time>
      </trkpt>
      <trkpt lat="59.831477582" lon="22.9733488954">
        <ele>26.2</ele>
        <time>2012-03-24T14:09:03Z</time>
      </trkpt>
      <trkpt lat="59.8315038174" lon="22.9732789065">
        <ele>26.2</ele>
        <time>2012-03-24T14:09:06Z</time>
      </trkpt>
      <trkpt lat="59.8315166417" lon="22.9730403577">
        <ele>26.2</ele>
        <time>2012-03-24T14:09:13Z</time>
      </trkpt>
      <trkpt lat="59.8315141271" lon="22.9730251864">
        <ele>26.2</ele>
        <time>2012-03-24T14:09:14Z</time>
      </trkpt>
      <trkpt lat="59.8315189048" lon="22.9728719653">
        <ele>26.2</ele>
        <time>2012-03-24T14:09:18Z</time>
      </trkpt>
      <trkpt lat="59.8315429609" lon="22.9727966958">
        <ele>26.2</ele>
        <time>2012-03-24T14:09:20Z</time>
      </trkpt>
      <trkpt lat="59.8315732195" lon="22.9727352565">
        <ele>26.2</ele>
        <time>2012-03-24T14:09:22Z</time>
      </trkpt>
      <trkpt lat="59.8315834454" lon="22.972632243">
        <ele>26.2</ele>
        <time>2012-03-24T14:09:27Z</time>
      </trkpt>
      <trkpt lat="59.8315634965" lon="22.9726141381">
        <ele>26.2</ele>
        <time>2012-03-24T14:09:28Z</time>
      </trkpt>
      <trkpt lat="59.8315218385" lon="22.9725733182">
        <ele>26.2</ele>
        <time>2012-03-24T14:09:30Z</time>
      </trkpt>
      <trkpt lat="59.831478504" lon="22.9725676185">
        <ele>26.2</ele>
        <time>2012-03-24T14:09:34Z</time>
      </trkpt>
      <trkpt lat="59.8314464014" lon="22.9724975458">
        <ele>26.2</ele>
        <time>2012-03-24T14:09:37Z</time>
      </trkpt>
      <trkpt lat="59.8314392768" lon="22.9724878228">
        <ele>26.2</ele>
        <time>2012-03-24T14:09:39Z</time>
      </trkpt>
      <trkpt lat="59.8314360916" lon="22.9724240366">
        <ele>26.2</ele>
        <time>2012-03-24T14:09:42Z</time>
      </trkpt>
      <trkpt lat="59.8314784202" lon="22.9723174188">
        <ele>26.2</ele>
        <time>2012-03-24T14:09:47Z</time>
      </trkpt>
      <trkpt lat="59.8313651808" lon="22.9720574961">
        <ele>25</ele>
        <time>2012-03-24T14:09:57Z</time>
      </trkpt>
      <trkpt lat="59.8313432202" lon="22.971882482">
        <ele>24.4</ele>
        <time>2012-03-24T14:10:03Z</time>
      </trkpt>
      <trkpt lat="59.8313565474" lon="22.9716682406">
        <ele>24.2</ele>
        <time>2012-03-24T14:10:10Z</time>
      </trkpt>
      <trkpt lat="59.8313801844" lon="22.9714334636">
        <ele>24</ele>
        <time>2012-03-24T14:10:18Z</time>
      </trkpt>
      <trkpt lat="59.8313948527" lon="22.9712409314">
        <ele>23.2</ele>
        <time>2012-03-24T14:10:24Z</time>
      </trkpt>
      <trkpt lat="59.8314059168" lon="22.9709734649">
        <ele>22.6</ele>
        <time>2012-03-24T14:10:29Z</time>
      </trkpt>
      <trkpt lat="59.8314070903" lon="22.9708071681">
        <ele>22.4</ele>
        <time>2012-03-24T14:10:34Z</time>
      </trkpt>
      <trkpt lat="59.8314048271" lon="22.9706137976">
        <ele>21.4</ele>
        <time>2012-03-24T14:10:41Z</time>
      </trkpt>
      <trkpt lat="59.8314080123" lon="22.9705204233">
        <ele>20.8</ele>
        <time>2012-03-24T14:10:45Z</time>
      </trkpt>
      <trkpt lat="59.8314148016" lon="22.9703071039">
        <ele>20</ele>
        <time>2012-03-24T14:10:53Z</time>
      </trkpt>
      <trkpt lat="59.8314355049" lon="22.9700614304">
        <ele>18.8</ele>
        <time>2012-03-24T14:11:02Z</time>
      </trkpt>
      <trkpt lat="59.8314686134" lon="22.9698193611">
        <ele>18.2</ele>
        <time>2012-03-24T14:11:11Z</time>
      </trkpt>
      <trkpt lat="59.8314911607" lon="22.9696539024">
        <ele>18.2</ele>
        <time>2012-03-24T14:11:17Z</time>
      </trkpt>
      <trkpt lat="59.8315258618" lon="22.9694795589">
        <ele>18</ele>
        <time>2012-03-24T14:11:24Z</time>
      </trkpt>
      <trkpt lat="59.8315626583" lon="22.96925308">
        <ele>18</ele>
        <time>2012-03-24T14:11:32Z</time>
      </trkpt>
      <trkpt lat="59.8315662625" lon="22.9692332987">
        <ele>18</ele>
        <time>2012-03-24T14:11:33Z</time>
      </trkpt>
      <trkpt lat="59.8315873011" lon="22.9690612183">
        <ele>18</ele>
        <time>2012-03-24T14:11:40Z</time>
      </trkpt>
      <trkpt lat="59.8315995387" lon="22.9689658323">
        <ele>18</ele>
        <time>2012-03-24T14:11:44Z</time>
      </trkpt>
      <trkpt lat="59.8316038135" lon="22.9689167143">
        <ele>18</ele>
        <time>2012-03-24T14:11:46Z</time>
      </trkpt>
      <trkpt lat="59.8316307194" lon="22.9687313067">
        <ele>18</ele>
        <time>2012-03-24T14:11:54Z</time>
      </trkpt>
      <trkpt lat="59.8316346588" lon="22.9686795066">
        <ele>18.4</ele>
        <time>2012-03-24T14:11:56Z</time>
      </trkpt>
      <trkpt lat="59.8316524285" lon="22.9685245252">
        <ele>19</ele>
        <time>2012-03-24T14:12:02Z</time>
      </trkpt>
      <trkpt lat="59.8316605589" lon="22.968478341">
        <ele>19.2</ele>
        <time>2012-03-24T14:12:04Z</time>
      </trkpt>
      <trkpt lat="59.8316937512" lon="22.9682562206">
        <ele>20.4</ele>
        <time>2012-03-24T14:12:12Z</time>
      </trkpt>
      <trkpt lat="59.8317105989" lon="22.9681168296">
        <ele>22</ele>
        <time>2012-03-24T14:12:18Z</time>
      </trkpt>
      <trkpt lat="59.8317347387" lon="22.9679790312">
        <ele>23</ele>
        <time>2012-03-24T14:12:24Z</time>
      </trkpt>
      <trkpt lat="59.8317343196" lon="22.9679522929">
        <ele>23.2</ele>
        <time>2012-03-24T14:12:25Z</time>
      </trkpt>
      <trkpt lat="59.8317414443" lon="22.9677554021">
        <ele>24.2</ele>
        <time>2012-03-24T14:12:32Z</time>
      </trkpt>
      <trkpt lat="59.8317452999" lon="22.9676974832">
        <ele>24.6</ele>
        <time>2012-03-24T14:12:34Z</time>
      </trkpt>
      <trkpt lat="59.8317491556" lon="22.9674689926">
        <ele>25.4</ele>
        <time>2012-03-24T14:12:42Z</time>
      </trkpt>
      <trkpt lat="59.8317615608" lon="22.9672885303">
        <ele>25.8</ele>
        <time>2012-03-24T14:12:49Z</time>
      </trkpt>
      <trkpt lat="59.8317666738" lon="22.9670936511">
        <ele>26</ele>
        <time>2012-03-24T14:12:56Z</time>
      </trkpt>
      <trkpt lat="59.8317691883" lon="22.9670176272">
        <ele>25.6</ele>
        <time>2012-03-24T14:12:59Z</time>
      </trkpt>
      <trkpt lat="59.8317653327" lon="22.9667973509">
        <ele>24.8</ele>
        <time>2012-03-24T14:13:07Z</time>
      </trkpt>
      <trkpt lat="59.8317695236" lon="22.9667515019">
        <ele>24.6</ele>
        <time>2012-03-24T14:13:09Z</time>
      </trkpt>
      <trkpt lat="59.8317583757" lon="22.9665451395">
        <ele>24.4</ele>
        <time>2012-03-24T14:13:16Z</time>
      </trkpt>
      <trkpt lat="59.8317054859" lon="22.9664544474">
        <ele>24.4</ele>
        <time>2012-03-24T14:13:20Z</time>
      </trkpt>
      <trkpt lat="59.8316198229" lon="22.966287899">
        <ele>24.4</ele>
        <time>2012-03-24T14:13:28Z</time>
      </trkpt>
      <trkpt lat="59.8315489958" lon="22.9662138869">
        <ele>25.8</ele>
        <time>2012-03-24T14:13:35Z</time>
      </trkpt>
      <trkpt lat="59.8315344951" lon="22.9661891602">
        <ele>26.4</ele>
        <time>2012-03-24T14:13:37Z</time>
      </trkpt>
      <trkpt lat="59.8314420428" lon="22.9661755816">
        <ele>29</ele>
        <time>2012-03-24T14:13:46Z</time>
      </trkpt>
      <trkpt lat="59.8313478302" lon="22.9661644336">
        <ele>31.2</ele>
        <time>2012-03-24T14:13:53Z</time>
      </trkpt>
      <trkpt lat="59.8312696271" lon="22.9661423892">
        <ele>32.8</ele>
        <time>2012-03-24T14:13:59Z</time>
      </trkpt>
      <trkpt lat="59.8311989677" lon="22.9661289782">
        <ele>34.6</ele>
        <time>2012-03-24T14:14:05Z</time>
      </trkpt>
      <trkpt lat="59.8311593213" lon="22.9661224403">
        <ele>35.2</ele>
        <time>2012-03-24T14:14:08Z</time>
      </trkpt>
      <trkpt lat="59.8311025758" lon="22.9661210992">
        <ele>36</ele>
        <time>2012-03-24T14:14:13Z</time>
      </trkpt>
      <trkpt lat="59.831036275" lon="22.9661144775">
        <ele>36.4</ele>
        <time>2012-03-24T14:14:19Z</time>
      </trkpt>
      <trkpt lat="59.8309138993" lon="22.9661083587">
        <ele>36.6</ele>
        <time>2012-03-24T14:14:26Z</time>
      </trkpt>
      <trkpt lat="59.8308245482" lon="22.9661040001">
        <ele>36.8</ele>
        <time>2012-03-24T14:14:32Z</time>
      </trkpt>
      <trkpt lat="59.8307081236" lon="22.9661163215">
        <ele>36</ele>
        <time>2012-03-24T14:14:40Z</time>
      </trkpt>
      <trkpt lat="59.8305955547" lon="22.9661129688">
        <ele>35.4</ele>
        <time>2012-03-24T14:14:47Z</time>
      </trkpt>
      <trkpt lat="59.8305100593" lon="22.9661164892">
        <ele>35</ele>
        <time>2012-03-24T14:14:53Z</time>
      </trkpt>
      <trkpt lat="59.8304071296" lon="22.966127218">
        <ele>35</ele>
        <time>2012-03-24T14:15:00Z</time>
      </trkpt>
      <trkpt lat="59.830300428" lon="22.9661227756">
        <ele>34.8</ele>
        <time>2012-03-24T14:15:06Z</time>
      </trkpt>
      <trkpt lat="59.8301768788" lon="22.9661043354">
        <ele>34.8</ele>
        <time>2012-03-24T14:15:14Z</time>
      </trkpt>
      <trkpt lat="59.8301471231" lon="22.9660970432">
        <ele>34.8</ele>
        <time>2012-03-24T14:15:16Z</time>
      </trkpt>
      <trkpt lat="59.8301261683" lon="22.9659780202">
        <ele>34.8</ele>
        <time>2012-03-24T14:15:21Z</time>
      </trkpt>
      <trkpt lat="59.8301285991" lon="22.9658936145">
        <ele>34.8</ele>
        <time>2012-03-24T14:15:24Z</time>
      </trkpt>
      <trkpt lat="59.8301436865" lon="22.9658263916">
        <ele>34.8</ele>
        <time>2012-03-24T14:15:28Z</time>
      </trkpt>
      <trkpt lat="59.8301541638" lon="22.9656717456">
        <ele>34.2</ele>
        <time>2012-03-24T14:15:33Z</time>
      </trkpt>
      <trkpt lat="59.8301483803" lon="22.965617347">
        <ele>34</ele>
        <time>2012-03-24T14:15:36Z</time>
      </trkpt>
      <trkpt lat="59.8301079796" lon="22.9654737651">
        <ele>32.6</ele>
        <time>2012-03-24T14:15:41Z</time>
      </trkpt>
      <trkpt lat="59.8300847617" lon="22.9654333643">
        <ele>31.8</ele>
        <time>2012-03-24T14:15:43Z</time>
      </trkpt>
      <trkpt lat="59.8300533296" lon="22.9653755292">
        <ele>31.2</ele>
        <time>2012-03-24T14:15:45Z</time>
      </trkpt>
      <trkpt lat="59.8300475461" lon="22.9652775448">
        <ele>30</ele>
        <time>2012-03-24T14:15:48Z</time>
      </trkpt>
      <trkpt lat="59.8300315367" lon="22.9649928117">
        <ele>27.2</ele>
        <time>2012-03-24T14:15:56Z</time>
      </trkpt>
      <trkpt lat="59.829969343" lon="22.9647661651">
        <ele>25.4</ele>
        <time>2012-03-24T14:16:04Z</time>
      </trkpt>
      <trkpt lat="59.8299017848" lon="22.964591151">
        <ele>24.8</ele>
        <time>2012-03-24T14:16:11Z</time>
      </trkpt>
      <trkpt lat="59.8298478892" lon="22.9644401092">
        <ele>24.2</ele>
        <time>2012-03-24T14:16:19Z</time>
      </trkpt>
      <trkpt lat="59.8298410161" lon="22.9643747304">
        <ele>23.6</ele>
        <time>2012-03-24T14:16:22Z</time>
      </trkpt>
      <trkpt lat="59.8298330533" lon="22.9641684518">
        <ele>22.4</ele>
        <time>2012-03-24T14:16:31Z</time>
      </trkpt>
      <trkpt lat="59.8298338914" lon="22.9640954454">
        <ele>21.8</ele>
        <time>2012-03-24T14:16:33Z</time>
      </trkpt>
    </trkseg>
  </trk>
</gpx>